<?xml version="1.0" encoding="UTF-8" standalone="no" ?>
<gpx xmlns="http://www.topografix.com/GPX/1/1" xmlns:xsi="http://www.w3.org/2001/XMLSchema-instance" xsi:schemaLocation="http://www.topografix.com/GPX/1/1 http://www.topografix.com/GPX/1/1/gpx.xsd" version="1.1" creator="VisuGPX - https://www.visugpx.com">
  <metadata>
    <name>Rando Pédestre D\\\'Artigues</name>
    <desc><![CDATA[Artigues Prés Bordeaux]]></desc>
  </metadata>
  <trk>
    <name><![CDATA[Tracé 20 janv. 2016 1:09:34 PM]]></name>
    <trkseg>
      <trkpt lat="44.84085" lon="-0.52274">
        <ele>7</ele>
        <time>2016-01-20T12:09:34Z</time>
      </trkpt>
      <trkpt lat="44.84081" lon="-0.52264">
        <ele>3</ele>
        <time>2016-01-20T12:09:52Z</time>
      </trkpt>
      <trkpt lat="44.84073" lon="-0.52264">
        <ele>3</ele>
        <time>2016-01-20T12:09:57Z</time>
      </trkpt>
      <trkpt lat="44.84066" lon="-0.52268">
        <ele>3</ele>
        <time>2016-01-20T12:10:05Z</time>
      </trkpt>
      <trkpt lat="44.84057" lon="-0.52272">
        <ele>3</ele>
        <time>2016-01-20T12:10:13Z</time>
      </trkpt>
      <trkpt lat="44.84049" lon="-0.5227">
        <ele>3</ele>
        <time>2016-01-20T12:10:21Z</time>
      </trkpt>
      <trkpt lat="44.84042" lon="-0.52262">
        <ele>3</ele>
        <time>2016-01-20T12:10:31Z</time>
      </trkpt>
      <trkpt lat="44.84035" lon="-0.52254">
        <ele>3</ele>
        <time>2016-01-20T12:10:38Z</time>
      </trkpt>
      <trkpt lat="44.8403" lon="-0.52244">
        <ele>1</ele>
        <time>2016-01-20T12:10:44Z</time>
      </trkpt>
      <trkpt lat="44.84029" lon="-0.52232">
        <ele>64.6</ele>
        <time>2016-01-20T12:10:53Z</time>
      </trkpt>
      <trkpt lat="44.84033" lon="-0.52222">
        <ele>-2</ele>
        <time>2016-01-20T12:11:01Z</time>
      </trkpt>
      <trkpt lat="44.8403" lon="-0.52213">
        <ele>-3</ele>
        <time>2016-01-20T12:11:05Z</time>
      </trkpt>
      <trkpt lat="44.84028" lon="-0.52201">
        <ele>-4</ele>
        <time>2016-01-20T12:11:10Z</time>
      </trkpt>
      <trkpt lat="44.84028" lon="-0.52189">
        <ele>-6</ele>
        <time>2016-01-20T12:11:19Z</time>
      </trkpt>
      <trkpt lat="44.84022" lon="-0.52182">
        <ele>-7</ele>
        <time>2016-01-20T12:11:30Z</time>
      </trkpt>
      <trkpt lat="44.84015" lon="-0.52178">
        <ele>-8</ele>
        <time>2016-01-20T12:11:36Z</time>
      </trkpt>
      <trkpt lat="44.84006" lon="-0.52175">
        <ele>-11</ele>
        <time>2016-01-20T12:11:42Z</time>
      </trkpt>
      <trkpt lat="44.83998" lon="-0.5217">
        <ele>-12</ele>
        <time>2016-01-20T12:11:49Z</time>
      </trkpt>
      <trkpt lat="44.83995" lon="-0.52162">
        <ele>-12</ele>
        <time>2016-01-20T12:11:56Z</time>
      </trkpt>
      <trkpt lat="44.83994" lon="-0.52149">
        <ele>-12</ele>
        <time>2016-01-20T12:12:04Z</time>
      </trkpt>
      <trkpt lat="44.83996" lon="-0.52138">
        <ele>-13</ele>
        <time>2016-01-20T12:12:12Z</time>
      </trkpt>
      <trkpt lat="44.83999" lon="-0.52126">
        <ele>-13</ele>
        <time>2016-01-20T12:12:20Z</time>
      </trkpt>
      <trkpt lat="44.84002" lon="-0.52116">
        <ele>-14</ele>
        <time>2016-01-20T12:12:28Z</time>
      </trkpt>
      <trkpt lat="44.84007" lon="-0.52107">
        <ele>-15</ele>
        <time>2016-01-20T12:12:39Z</time>
      </trkpt>
      <trkpt lat="44.84011" lon="-0.52098">
        <ele>-14</ele>
        <time>2016-01-20T12:12:44Z</time>
      </trkpt>
      <trkpt lat="44.84013" lon="-0.52085">
        <ele>-14</ele>
        <time>2016-01-20T12:12:49Z</time>
      </trkpt>
      <trkpt lat="44.84013" lon="-0.52072">
        <ele>-13</ele>
        <time>2016-01-20T12:12:53Z</time>
      </trkpt>
      <trkpt lat="44.84015" lon="-0.5206">
        <ele>-13</ele>
        <time>2016-01-20T12:13:01Z</time>
      </trkpt>
      <trkpt lat="44.84017" lon="-0.52049">
        <ele>-13</ele>
        <time>2016-01-20T12:13:08Z</time>
      </trkpt>
      <trkpt lat="44.8402" lon="-0.52038">
        <ele>-13</ele>
        <time>2016-01-20T12:13:14Z</time>
      </trkpt>
      <trkpt lat="44.84024" lon="-0.52027">
        <ele>-13</ele>
        <time>2016-01-20T12:13:21Z</time>
      </trkpt>
      <trkpt lat="44.84023" lon="-0.52018">
        <ele>-12</ele>
        <time>2016-01-20T12:13:26Z</time>
      </trkpt>
      <trkpt lat="44.84023" lon="-0.52007">
        <ele>-12</ele>
        <time>2016-01-20T12:13:32Z</time>
      </trkpt>
      <trkpt lat="44.84025" lon="-0.51995">
        <ele>-12</ele>
        <time>2016-01-20T12:13:41Z</time>
      </trkpt>
      <trkpt lat="44.84024" lon="-0.51983">
        <ele>-12</ele>
        <time>2016-01-20T12:13:48Z</time>
      </trkpt>
      <trkpt lat="44.84022" lon="-0.51972">
        <ele>-12</ele>
        <time>2016-01-20T12:13:54Z</time>
      </trkpt>
      <trkpt lat="44.84022" lon="-0.5196">
        <ele>-12</ele>
        <time>2016-01-20T12:14:00Z</time>
      </trkpt>
      <trkpt lat="44.8402" lon="-0.5195">
        <ele>-12</ele>
        <time>2016-01-20T12:14:05Z</time>
      </trkpt>
      <trkpt lat="44.84018" lon="-0.51939">
        <ele>-12</ele>
        <time>2016-01-20T12:14:10Z</time>
      </trkpt>
      <trkpt lat="44.8402" lon="-0.51927">
        <ele>-12</ele>
        <time>2016-01-20T12:14:18Z</time>
      </trkpt>
      <trkpt lat="44.84023" lon="-0.51915">
        <ele>-12</ele>
        <time>2016-01-20T12:14:28Z</time>
      </trkpt>
      <trkpt lat="44.84021" lon="-0.51905">
        <ele>-12</ele>
        <time>2016-01-20T12:14:33Z</time>
      </trkpt>
      <trkpt lat="44.84019" lon="-0.51894">
        <ele>-12</ele>
        <time>2016-01-20T12:14:38Z</time>
      </trkpt>
      <trkpt lat="44.84019" lon="-0.51883">
        <ele>-12</ele>
        <time>2016-01-20T12:14:44Z</time>
      </trkpt>
      <trkpt lat="44.84016" lon="-0.51871">
        <ele>-10</ele>
        <time>2016-01-20T12:14:50Z</time>
      </trkpt>
      <trkpt lat="44.84012" lon="-0.51856">
        <ele>-8</ele>
        <time>2016-01-20T12:14:54Z</time>
      </trkpt>
      <trkpt lat="44.84011" lon="-0.51845">
        <ele>-7</ele>
        <time>2016-01-20T12:15:01Z</time>
      </trkpt>
      <trkpt lat="44.84016" lon="-0.51836">
        <ele>-3</ele>
        <time>2016-01-20T12:15:08Z</time>
      </trkpt>
      <trkpt lat="44.84016" lon="-0.51823">
        <ele>68.9</ele>
        <time>2016-01-20T12:15:14Z</time>
      </trkpt>
      <trkpt lat="44.84017" lon="-0.51812">
        <ele>68.3</ele>
        <time>2016-01-20T12:15:21Z</time>
      </trkpt>
      <trkpt lat="44.84016" lon="-0.51801">
        <ele>2</ele>
        <time>2016-01-20T12:15:25Z</time>
      </trkpt>
      <trkpt lat="44.84015" lon="-0.5179">
        <ele>2</ele>
        <time>2016-01-20T12:15:30Z</time>
      </trkpt>
      <trkpt lat="44.84015" lon="-0.51778">
        <ele>3</ele>
        <time>2016-01-20T12:15:36Z</time>
      </trkpt>
      <trkpt lat="44.84015" lon="-0.51767">
        <ele>1</ele>
        <time>2016-01-20T12:15:44Z</time>
      </trkpt>
      <trkpt lat="44.84015" lon="-0.51756">
        <ele>65.3</ele>
        <time>2016-01-20T12:15:51Z</time>
      </trkpt>
      <trkpt lat="44.84016" lon="-0.51744">
        <ele>1</ele>
        <time>2016-01-20T12:15:57Z</time>
      </trkpt>
      <trkpt lat="44.84017" lon="-0.51733">
        <ele>1</ele>
        <time>2016-01-20T12:16:03Z</time>
      </trkpt>
      <trkpt lat="44.84017" lon="-0.51723">
        <ele>64.6</ele>
        <time>2016-01-20T12:16:08Z</time>
      </trkpt>
      <trkpt lat="44.84016" lon="-0.51711">
        <ele>2</ele>
        <time>2016-01-20T12:16:12Z</time>
      </trkpt>
      <trkpt lat="44.84014" lon="-0.517">
        <ele>2</ele>
        <time>2016-01-20T12:16:18Z</time>
      </trkpt>
      <trkpt lat="44.84015" lon="-0.51689">
        <ele>4</ele>
        <time>2016-01-20T12:16:24Z</time>
      </trkpt>
      <trkpt lat="44.84019" lon="-0.51678">
        <ele>7</ele>
        <time>2016-01-20T12:16:30Z</time>
      </trkpt>
      <trkpt lat="44.84024" lon="-0.51668">
        <ele>9</ele>
        <time>2016-01-20T12:16:36Z</time>
      </trkpt>
      <trkpt lat="44.84028" lon="-0.51657">
        <ele>10</ele>
        <time>2016-01-20T12:16:43Z</time>
      </trkpt>
      <trkpt lat="44.84028" lon="-0.51645">
        <ele>9</ele>
        <time>2016-01-20T12:16:49Z</time>
      </trkpt>
      <trkpt lat="44.84032" lon="-0.51635">
        <ele>7</ele>
        <time>2016-01-20T12:16:56Z</time>
      </trkpt>
      <trkpt lat="44.84036" lon="-0.51624">
        <ele>6</ele>
        <time>2016-01-20T12:17:03Z</time>
      </trkpt>
      <trkpt lat="44.84041" lon="-0.51615">
        <ele>4</ele>
        <time>2016-01-20T12:17:10Z</time>
      </trkpt>
      <trkpt lat="44.84048" lon="-0.51609">
        <ele>4</ele>
        <time>2016-01-20T12:17:16Z</time>
      </trkpt>
      <trkpt lat="44.84055" lon="-0.51604">
        <ele>6</ele>
        <time>2016-01-20T12:17:23Z</time>
      </trkpt>
      <trkpt lat="44.84063" lon="-0.51601">
        <ele>7</ele>
        <time>2016-01-20T12:17:29Z</time>
      </trkpt>
      <trkpt lat="44.84071" lon="-0.51601">
        <ele>8</ele>
        <time>2016-01-20T12:17:35Z</time>
      </trkpt>
      <trkpt lat="44.84079" lon="-0.516">
        <ele>7</ele>
        <time>2016-01-20T12:17:42Z</time>
      </trkpt>
      <trkpt lat="44.84087" lon="-0.516">
        <ele>5</ele>
        <time>2016-01-20T12:17:48Z</time>
      </trkpt>
      <trkpt lat="44.84095" lon="-0.51597">
        <ele>6</ele>
        <time>2016-01-20T12:17:56Z</time>
      </trkpt>
      <trkpt lat="44.84104" lon="-0.51595">
        <ele>8</ele>
        <time>2016-01-20T12:18:03Z</time>
      </trkpt>
      <trkpt lat="44.84111" lon="-0.51591">
        <ele>10</ele>
        <time>2016-01-20T12:18:10Z</time>
      </trkpt>
      <trkpt lat="44.84119" lon="-0.51588">
        <ele>9</ele>
        <time>2016-01-20T12:18:16Z</time>
      </trkpt>
      <trkpt lat="44.84125" lon="-0.51581">
        <ele>9</ele>
        <time>2016-01-20T12:18:23Z</time>
      </trkpt>
      <trkpt lat="44.84132" lon="-0.51573">
        <ele>9</ele>
        <time>2016-01-20T12:18:30Z</time>
      </trkpt>
      <trkpt lat="44.84138" lon="-0.51565">
        <ele>10</ele>
        <time>2016-01-20T12:18:36Z</time>
      </trkpt>
      <trkpt lat="44.84145" lon="-0.51559">
        <ele>10</ele>
        <time>2016-01-20T12:18:42Z</time>
      </trkpt>
      <trkpt lat="44.84153" lon="-0.51555">
        <ele>9</ele>
        <time>2016-01-20T12:18:48Z</time>
      </trkpt>
      <trkpt lat="44.84161" lon="-0.51553">
        <ele>11</ele>
        <time>2016-01-20T12:18:53Z</time>
      </trkpt>
      <trkpt lat="44.84169" lon="-0.51552">
        <ele>10</ele>
        <time>2016-01-20T12:18:59Z</time>
      </trkpt>
      <trkpt lat="44.84176" lon="-0.51549">
        <ele>13</ele>
        <time>2016-01-20T12:19:05Z</time>
      </trkpt>
      <trkpt lat="44.84185" lon="-0.51548">
        <ele>14</ele>
        <time>2016-01-20T12:19:13Z</time>
      </trkpt>
      <trkpt lat="44.84194" lon="-0.51548">
        <ele>16</ele>
        <time>2016-01-20T12:19:19Z</time>
      </trkpt>
      <trkpt lat="44.84202" lon="-0.51549">
        <ele>17</ele>
        <time>2016-01-20T12:19:26Z</time>
      </trkpt>
      <trkpt lat="44.84211" lon="-0.51552">
        <ele>19</ele>
        <time>2016-01-20T12:19:33Z</time>
      </trkpt>
      <trkpt lat="44.84218" lon="-0.51556">
        <ele>17</ele>
        <time>2016-01-20T12:19:39Z</time>
      </trkpt>
      <trkpt lat="44.84226" lon="-0.5156">
        <ele>17</ele>
        <time>2016-01-20T12:19:48Z</time>
      </trkpt>
      <trkpt lat="44.84234" lon="-0.51565">
        <ele>16</ele>
        <time>2016-01-20T12:19:55Z</time>
      </trkpt>
      <trkpt lat="44.84241" lon="-0.51573">
        <ele>18</ele>
        <time>2016-01-20T12:20:01Z</time>
      </trkpt>
      <trkpt lat="44.84249" lon="-0.51579">
        <ele>18</ele>
        <time>2016-01-20T12:20:08Z</time>
      </trkpt>
      <trkpt lat="44.84257" lon="-0.51584">
        <ele>19</ele>
        <time>2016-01-20T12:20:17Z</time>
      </trkpt>
      <trkpt lat="44.84265" lon="-0.5158">
        <ele>16</ele>
        <time>2016-01-20T12:20:25Z</time>
      </trkpt>
      <trkpt lat="44.84272" lon="-0.51571">
        <ele>12</ele>
        <time>2016-01-20T12:20:34Z</time>
      </trkpt>
      <trkpt lat="44.84273" lon="-0.5156">
        <ele>9</ele>
        <time>2016-01-20T12:20:42Z</time>
      </trkpt>
      <trkpt lat="44.84275" lon="-0.51549">
        <ele>8</ele>
        <time>2016-01-20T12:20:48Z</time>
      </trkpt>
      <trkpt lat="44.84279" lon="-0.5154">
        <ele>9</ele>
        <time>2016-01-20T12:20:54Z</time>
      </trkpt>
      <trkpt lat="44.84281" lon="-0.51528">
        <ele>9</ele>
        <time>2016-01-20T12:20:59Z</time>
      </trkpt>
      <trkpt lat="44.84285" lon="-0.51518">
        <ele>9</ele>
        <time>2016-01-20T12:21:04Z</time>
      </trkpt>
      <trkpt lat="44.8429" lon="-0.51509">
        <ele>9</ele>
        <time>2016-01-20T12:21:10Z</time>
      </trkpt>
      <trkpt lat="44.84295" lon="-0.51499">
        <ele>7</ele>
        <time>2016-01-20T12:21:17Z</time>
      </trkpt>
      <trkpt lat="44.84301" lon="-0.5149">
        <ele>5</ele>
        <time>2016-01-20T12:21:24Z</time>
      </trkpt>
      <trkpt lat="44.84308" lon="-0.51484">
        <ele>4</ele>
        <time>2016-01-20T12:21:32Z</time>
      </trkpt>
      <trkpt lat="44.84312" lon="-0.51474">
        <ele>2</ele>
        <time>2016-01-20T12:21:41Z</time>
      </trkpt>
      <trkpt lat="44.84314" lon="-0.51464">
        <ele>4</ele>
        <time>2016-01-20T12:21:45Z</time>
      </trkpt>
      <trkpt lat="44.84317" lon="-0.51454">
        <ele>6</ele>
        <time>2016-01-20T12:21:50Z</time>
      </trkpt>
      <trkpt lat="44.8432" lon="-0.51442">
        <ele>7</ele>
        <time>2016-01-20T12:21:56Z</time>
      </trkpt>
      <trkpt lat="44.84322" lon="-0.51432">
        <ele>7</ele>
        <time>2016-01-20T12:22:01Z</time>
      </trkpt>
      <trkpt lat="44.84325" lon="-0.51422">
        <ele>8</ele>
        <time>2016-01-20T12:22:06Z</time>
      </trkpt>
      <trkpt lat="44.84329" lon="-0.51411">
        <ele>8</ele>
        <time>2016-01-20T12:22:13Z</time>
      </trkpt>
      <trkpt lat="44.84331" lon="-0.514">
        <ele>9</ele>
        <time>2016-01-20T12:22:19Z</time>
      </trkpt>
      <trkpt lat="44.84331" lon="-0.51389">
        <ele>9</ele>
        <time>2016-01-20T12:22:25Z</time>
      </trkpt>
      <trkpt lat="44.84331" lon="-0.51376">
        <ele>11</ele>
        <time>2016-01-20T12:22:34Z</time>
      </trkpt>
      <trkpt lat="44.84329" lon="-0.51364">
        <ele>12</ele>
        <time>2016-01-20T12:22:42Z</time>
      </trkpt>
      <trkpt lat="44.8433" lon="-0.51352">
        <ele>14</ele>
        <time>2016-01-20T12:22:49Z</time>
      </trkpt>
      <trkpt lat="44.84331" lon="-0.51341">
        <ele>13</ele>
        <time>2016-01-20T12:22:56Z</time>
      </trkpt>
      <trkpt lat="44.84335" lon="-0.5133">
        <ele>11</ele>
        <time>2016-01-20T12:23:03Z</time>
      </trkpt>
      <trkpt lat="44.84333" lon="-0.51318">
        <ele>11</ele>
        <time>2016-01-20T12:23:08Z</time>
      </trkpt>
      <trkpt lat="44.84332" lon="-0.51306">
        <ele>11</ele>
        <time>2016-01-20T12:23:14Z</time>
      </trkpt>
      <trkpt lat="44.84332" lon="-0.51295">
        <ele>12</ele>
        <time>2016-01-20T12:23:19Z</time>
      </trkpt>
      <trkpt lat="44.84332" lon="-0.51284">
        <ele>13</ele>
        <time>2016-01-20T12:23:25Z</time>
      </trkpt>
      <trkpt lat="44.84331" lon="-0.51271">
        <ele>13</ele>
        <time>2016-01-20T12:23:32Z</time>
      </trkpt>
      <trkpt lat="44.8433" lon="-0.51259">
        <ele>10</ele>
        <time>2016-01-20T12:23:39Z</time>
      </trkpt>
      <trkpt lat="44.84327" lon="-0.51248">
        <ele>8</ele>
        <time>2016-01-20T12:23:45Z</time>
      </trkpt>
      <trkpt lat="44.84326" lon="-0.51238">
        <ele>10</ele>
        <time>2016-01-20T12:23:50Z</time>
      </trkpt>
      <trkpt lat="44.84324" lon="-0.51227">
        <ele>13</ele>
        <time>2016-01-20T12:23:56Z</time>
      </trkpt>
      <trkpt lat="44.84323" lon="-0.51215">
        <ele>13</ele>
        <time>2016-01-20T12:24:02Z</time>
      </trkpt>
      <trkpt lat="44.8432" lon="-0.51205">
        <ele>14</ele>
        <time>2016-01-20T12:24:08Z</time>
      </trkpt>
      <trkpt lat="44.84317" lon="-0.51192">
        <ele>11</ele>
        <time>2016-01-20T12:24:17Z</time>
      </trkpt>
      <trkpt lat="44.84316" lon="-0.5118">
        <ele>10</ele>
        <time>2016-01-20T12:24:25Z</time>
      </trkpt>
      <trkpt lat="44.84313" lon="-0.51169">
        <ele>7</ele>
        <time>2016-01-20T12:24:31Z</time>
      </trkpt>
      <trkpt lat="44.84311" lon="-0.51159">
        <ele>9</ele>
        <time>2016-01-20T12:24:36Z</time>
      </trkpt>
      <trkpt lat="44.84309" lon="-0.51148">
        <ele>9</ele>
        <time>2016-01-20T12:24:42Z</time>
      </trkpt>
      <trkpt lat="44.84315" lon="-0.51139">
        <ele>7</ele>
        <time>2016-01-20T12:24:49Z</time>
      </trkpt>
      <trkpt lat="44.84314" lon="-0.51127">
        <ele>6</ele>
        <time>2016-01-20T12:24:55Z</time>
      </trkpt>
      <trkpt lat="44.84311" lon="-0.51116">
        <ele>9</ele>
        <time>2016-01-20T12:25:04Z</time>
      </trkpt>
      <trkpt lat="44.84306" lon="-0.51106">
        <ele>8</ele>
        <time>2016-01-20T12:25:12Z</time>
      </trkpt>
      <trkpt lat="44.84301" lon="-0.51098">
        <ele>7</ele>
        <time>2016-01-20T12:25:18Z</time>
      </trkpt>
      <trkpt lat="44.84297" lon="-0.51086">
        <ele>13</ele>
        <time>2016-01-20T12:25:26Z</time>
      </trkpt>
      <trkpt lat="44.84296" lon="-0.51074">
        <ele>10</ele>
        <time>2016-01-20T12:25:34Z</time>
      </trkpt>
      <trkpt lat="44.84295" lon="-0.51063">
        <ele>10</ele>
        <time>2016-01-20T12:25:40Z</time>
      </trkpt>
      <trkpt lat="44.8429" lon="-0.51053">
        <ele>9</ele>
        <time>2016-01-20T12:25:46Z</time>
      </trkpt>
      <trkpt lat="44.84286" lon="-0.51042">
        <ele>10</ele>
        <time>2016-01-20T12:25:52Z</time>
      </trkpt>
      <trkpt lat="44.84284" lon="-0.51032">
        <ele>10</ele>
        <time>2016-01-20T12:25:58Z</time>
      </trkpt>
      <trkpt lat="44.84281" lon="-0.51021">
        <ele>11</ele>
        <time>2016-01-20T12:26:03Z</time>
      </trkpt>
      <trkpt lat="44.84278" lon="-0.5101">
        <ele>9</ele>
        <time>2016-01-20T12:26:09Z</time>
      </trkpt>
      <trkpt lat="44.84275" lon="-0.50998">
        <ele>7</ele>
        <time>2016-01-20T12:26:16Z</time>
      </trkpt>
      <trkpt lat="44.84274" lon="-0.50987">
        <ele>9</ele>
        <time>2016-01-20T12:26:22Z</time>
      </trkpt>
      <trkpt lat="44.84273" lon="-0.50975">
        <ele>9</ele>
        <time>2016-01-20T12:26:28Z</time>
      </trkpt>
      <trkpt lat="44.84272" lon="-0.50964">
        <ele>7</ele>
        <time>2016-01-20T12:26:35Z</time>
      </trkpt>
      <trkpt lat="44.84272" lon="-0.50953">
        <ele>6</ele>
        <time>2016-01-20T12:26:44Z</time>
      </trkpt>
      <trkpt lat="44.84273" lon="-0.50941">
        <ele>6</ele>
        <time>2016-01-20T12:26:52Z</time>
      </trkpt>
      <trkpt lat="44.84275" lon="-0.5093">
        <ele>4</ele>
        <time>2016-01-20T12:26:59Z</time>
      </trkpt>
      <trkpt lat="44.84279" lon="-0.50919">
        <ele>3</ele>
        <time>2016-01-20T12:27:07Z</time>
      </trkpt>
      <trkpt lat="44.8428" lon="-0.50907">
        <ele>4</ele>
        <time>2016-01-20T12:27:14Z</time>
      </trkpt>
      <trkpt lat="44.84281" lon="-0.50895">
        <ele>4</ele>
        <time>2016-01-20T12:27:21Z</time>
      </trkpt>
      <trkpt lat="44.84282" lon="-0.50883">
        <ele>5</ele>
        <time>2016-01-20T12:27:28Z</time>
      </trkpt>
      <trkpt lat="44.84284" lon="-0.50871">
        <ele>7</ele>
        <time>2016-01-20T12:27:33Z</time>
      </trkpt>
      <trkpt lat="44.84286" lon="-0.5086">
        <ele>8</ele>
        <time>2016-01-20T12:27:40Z</time>
      </trkpt>
      <trkpt lat="44.84287" lon="-0.50848">
        <ele>10</ele>
        <time>2016-01-20T12:27:47Z</time>
      </trkpt>
      <trkpt lat="44.84289" lon="-0.50837">
        <ele>10</ele>
        <time>2016-01-20T12:27:55Z</time>
      </trkpt>
      <trkpt lat="44.84292" lon="-0.50825">
        <ele>12</ele>
        <time>2016-01-20T12:28:08Z</time>
      </trkpt>
      <trkpt lat="44.84295" lon="-0.50815">
        <ele>14</ele>
        <time>2016-01-20T12:28:13Z</time>
      </trkpt>
      <trkpt lat="44.84295" lon="-0.50804">
        <ele>16</ele>
        <time>2016-01-20T12:28:19Z</time>
      </trkpt>
      <trkpt lat="44.84297" lon="-0.50793">
        <ele>15</ele>
        <time>2016-01-20T12:28:26Z</time>
      </trkpt>
      <trkpt lat="44.84297" lon="-0.5078">
        <ele>13</ele>
        <time>2016-01-20T12:28:34Z</time>
      </trkpt>
      <trkpt lat="44.84299" lon="-0.50769">
        <ele>12</ele>
        <time>2016-01-20T12:28:41Z</time>
      </trkpt>
      <trkpt lat="44.84301" lon="-0.50757">
        <ele>13</ele>
        <time>2016-01-20T12:28:50Z</time>
      </trkpt>
      <trkpt lat="44.843" lon="-0.50744">
        <ele>13</ele>
        <time>2016-01-20T12:28:57Z</time>
      </trkpt>
      <trkpt lat="44.84302" lon="-0.50733">
        <ele>15</ele>
        <time>2016-01-20T12:29:04Z</time>
      </trkpt>
      <trkpt lat="44.84297" lon="-0.50723">
        <ele>18</ele>
        <time>2016-01-20T12:29:16Z</time>
      </trkpt>
      <trkpt lat="44.84289" lon="-0.50719">
        <ele>17</ele>
        <time>2016-01-20T12:29:24Z</time>
      </trkpt>
      <trkpt lat="44.84281" lon="-0.50716">
        <ele>16</ele>
        <time>2016-01-20T12:29:31Z</time>
      </trkpt>
      <trkpt lat="44.84274" lon="-0.50715">
        <ele>13</ele>
        <time>2016-01-20T12:29:38Z</time>
      </trkpt>
      <trkpt lat="44.84265" lon="-0.50713">
        <ele>12</ele>
        <time>2016-01-20T12:29:46Z</time>
      </trkpt>
      <trkpt lat="44.84257" lon="-0.5071">
        <ele>11</ele>
        <time>2016-01-20T12:29:52Z</time>
      </trkpt>
      <trkpt lat="44.8425" lon="-0.50703">
        <ele>11</ele>
        <time>2016-01-20T12:29:57Z</time>
      </trkpt>
      <trkpt lat="44.84245" lon="-0.50697">
        <ele>12</ele>
        <time>2016-01-20T12:30:01Z</time>
      </trkpt>
      <trkpt lat="44.8424" lon="-0.5069">
        <ele>14</ele>
        <time>2016-01-20T12:30:05Z</time>
      </trkpt>
      <trkpt lat="44.84234" lon="-0.50681">
        <ele>16</ele>
        <time>2016-01-20T12:30:11Z</time>
      </trkpt>
      <trkpt lat="44.84229" lon="-0.50673">
        <ele>18</ele>
        <time>2016-01-20T12:30:18Z</time>
      </trkpt>
      <trkpt lat="44.84224" lon="-0.50664">
        <ele>22</ele>
        <time>2016-01-20T12:30:24Z</time>
      </trkpt>
      <trkpt lat="44.84219" lon="-0.50654">
        <ele>24</ele>
        <time>2016-01-20T12:30:32Z</time>
      </trkpt>
      <trkpt lat="44.84214" lon="-0.50644">
        <ele>29</ele>
        <time>2016-01-20T12:30:40Z</time>
      </trkpt>
      <trkpt lat="44.84208" lon="-0.50634">
        <ele>31</ele>
        <time>2016-01-20T12:30:47Z</time>
      </trkpt>
      <trkpt lat="44.84202" lon="-0.50627">
        <ele>34</ele>
        <time>2016-01-20T12:30:54Z</time>
      </trkpt>
      <trkpt lat="44.84196" lon="-0.50619">
        <ele>33</ele>
        <time>2016-01-20T12:31:01Z</time>
      </trkpt>
      <trkpt lat="44.84189" lon="-0.50613">
        <ele>31</ele>
        <time>2016-01-20T12:31:10Z</time>
      </trkpt>
      <trkpt lat="44.84181" lon="-0.50613">
        <ele>29</ele>
        <time>2016-01-20T12:31:18Z</time>
      </trkpt>
      <trkpt lat="44.84173" lon="-0.50617">
        <ele>32</ele>
        <time>2016-01-20T12:31:25Z</time>
      </trkpt>
      <trkpt lat="44.84166" lon="-0.50622">
        <ele>32</ele>
        <time>2016-01-20T12:31:31Z</time>
      </trkpt>
      <trkpt lat="44.84161" lon="-0.5063">
        <ele>29</ele>
        <time>2016-01-20T12:31:36Z</time>
      </trkpt>
      <trkpt lat="44.84157" lon="-0.50641">
        <ele>26</ele>
        <time>2016-01-20T12:31:43Z</time>
      </trkpt>
      <trkpt lat="44.84151" lon="-0.5065">
        <ele>24</ele>
        <time>2016-01-20T12:31:50Z</time>
      </trkpt>
      <trkpt lat="44.84147" lon="-0.5066">
        <ele>23</ele>
        <time>2016-01-20T12:31:57Z</time>
      </trkpt>
      <trkpt lat="44.84141" lon="-0.5067">
        <ele>23</ele>
        <time>2016-01-20T12:32:04Z</time>
      </trkpt>
      <trkpt lat="44.84136" lon="-0.50679">
        <ele>22</ele>
        <time>2016-01-20T12:32:10Z</time>
      </trkpt>
      <trkpt lat="44.84129" lon="-0.50686">
        <ele>23</ele>
        <time>2016-01-20T12:32:18Z</time>
      </trkpt>
      <trkpt lat="44.84122" lon="-0.50692">
        <ele>20</ele>
        <time>2016-01-20T12:32:24Z</time>
      </trkpt>
      <trkpt lat="44.84115" lon="-0.50699">
        <ele>18</ele>
        <time>2016-01-20T12:32:31Z</time>
      </trkpt>
      <trkpt lat="44.84109" lon="-0.50707">
        <ele>16</ele>
        <time>2016-01-20T12:32:37Z</time>
      </trkpt>
      <trkpt lat="44.84102" lon="-0.50713">
        <ele>9</ele>
        <time>2016-01-20T12:32:44Z</time>
      </trkpt>
      <trkpt lat="44.84094" lon="-0.50716">
        <ele>3</ele>
        <time>2016-01-20T12:32:50Z</time>
      </trkpt>
      <trkpt lat="44.84085" lon="-0.50719">
        <ele>74.1</ele>
        <time>2016-01-20T12:32:58Z</time>
      </trkpt>
      <trkpt lat="44.84077" lon="-0.50722">
        <ele>74</ele>
        <time>2016-01-20T12:33:05Z</time>
      </trkpt>
      <trkpt lat="44.84069" lon="-0.50726">
        <ele>3</ele>
        <time>2016-01-20T12:33:13Z</time>
      </trkpt>
      <trkpt lat="44.84061" lon="-0.50728">
        <ele>5</ele>
        <time>2016-01-20T12:33:21Z</time>
      </trkpt>
      <trkpt lat="44.84053" lon="-0.50724">
        <ele>-1</ele>
        <time>2016-01-20T12:33:27Z</time>
      </trkpt>
      <trkpt lat="44.84045" lon="-0.50719">
        <ele>2</ele>
        <time>2016-01-20T12:33:34Z</time>
      </trkpt>
      <trkpt lat="44.84039" lon="-0.5071">
        <ele>8</ele>
        <time>2016-01-20T12:33:41Z</time>
      </trkpt>
      <trkpt lat="44.84032" lon="-0.50703">
        <ele>14</ele>
        <time>2016-01-20T12:33:48Z</time>
      </trkpt>
      <trkpt lat="44.84026" lon="-0.50694">
        <ele>21</ele>
        <time>2016-01-20T12:33:56Z</time>
      </trkpt>
      <trkpt lat="44.84021" lon="-0.50684">
        <ele>22</ele>
        <time>2016-01-20T12:34:04Z</time>
      </trkpt>
      <trkpt lat="44.84017" lon="-0.50675">
        <ele>23</ele>
        <time>2016-01-20T12:34:11Z</time>
      </trkpt>
      <trkpt lat="44.84012" lon="-0.50665">
        <ele>20</ele>
        <time>2016-01-20T12:34:16Z</time>
      </trkpt>
      <trkpt lat="44.84008" lon="-0.50655">
        <ele>19</ele>
        <time>2016-01-20T12:34:22Z</time>
      </trkpt>
      <trkpt lat="44.84003" lon="-0.50646">
        <ele>19</ele>
        <time>2016-01-20T12:34:28Z</time>
      </trkpt>
      <trkpt lat="44.83998" lon="-0.50636">
        <ele>21</ele>
        <time>2016-01-20T12:34:34Z</time>
      </trkpt>
      <trkpt lat="44.83993" lon="-0.50628">
        <ele>21</ele>
        <time>2016-01-20T12:34:40Z</time>
      </trkpt>
      <trkpt lat="44.83987" lon="-0.50621">
        <ele>22</ele>
        <time>2016-01-20T12:34:45Z</time>
      </trkpt>
      <trkpt lat="44.8398" lon="-0.50615">
        <ele>20</ele>
        <time>2016-01-20T12:34:50Z</time>
      </trkpt>
      <trkpt lat="44.83973" lon="-0.50608">
        <ele>21</ele>
        <time>2016-01-20T12:34:56Z</time>
      </trkpt>
      <trkpt lat="44.83965" lon="-0.50603">
        <ele>21</ele>
        <time>2016-01-20T12:35:02Z</time>
      </trkpt>
      <trkpt lat="44.83957" lon="-0.50599">
        <ele>22</ele>
        <time>2016-01-20T12:35:09Z</time>
      </trkpt>
      <trkpt lat="44.8395" lon="-0.50598">
        <ele>21</ele>
        <time>2016-01-20T12:35:16Z</time>
      </trkpt>
      <trkpt lat="44.83942" lon="-0.50596">
        <ele>19</ele>
        <time>2016-01-20T12:35:21Z</time>
      </trkpt>
      <trkpt lat="44.83934" lon="-0.50597">
        <ele>18</ele>
        <time>2016-01-20T12:35:27Z</time>
      </trkpt>
      <trkpt lat="44.83925" lon="-0.50598">
        <ele>15</ele>
        <time>2016-01-20T12:35:34Z</time>
      </trkpt>
      <trkpt lat="44.83917" lon="-0.506">
        <ele>11</ele>
        <time>2016-01-20T12:35:41Z</time>
      </trkpt>
      <trkpt lat="44.83908" lon="-0.50601">
        <ele>11</ele>
        <time>2016-01-20T12:35:48Z</time>
      </trkpt>
      <trkpt lat="44.839" lon="-0.50603">
        <ele>9</ele>
        <time>2016-01-20T12:35:55Z</time>
      </trkpt>
      <trkpt lat="44.83892" lon="-0.50602">
        <ele>11</ele>
        <time>2016-01-20T12:36:01Z</time>
      </trkpt>
      <trkpt lat="44.83884" lon="-0.50601">
        <ele>8</ele>
        <time>2016-01-20T12:36:06Z</time>
      </trkpt>
      <trkpt lat="44.83876" lon="-0.50598">
        <ele>7</ele>
        <time>2016-01-20T12:36:12Z</time>
      </trkpt>
      <trkpt lat="44.83867" lon="-0.50595">
        <ele>12</ele>
        <time>2016-01-20T12:36:19Z</time>
      </trkpt>
      <trkpt lat="44.83859" lon="-0.50592">
        <ele>14</ele>
        <time>2016-01-20T12:36:27Z</time>
      </trkpt>
      <trkpt lat="44.83852" lon="-0.50587">
        <ele>19</ele>
        <time>2016-01-20T12:36:34Z</time>
      </trkpt>
      <trkpt lat="44.83845" lon="-0.50582">
        <ele>17</ele>
        <time>2016-01-20T12:36:41Z</time>
      </trkpt>
      <trkpt lat="44.83838" lon="-0.50573">
        <ele>15</ele>
        <time>2016-01-20T12:36:48Z</time>
      </trkpt>
      <trkpt lat="44.83833" lon="-0.50562">
        <ele>15</ele>
        <time>2016-01-20T12:36:55Z</time>
      </trkpt>
      <trkpt lat="44.8383" lon="-0.50553">
        <ele>15</ele>
        <time>2016-01-20T12:37:00Z</time>
      </trkpt>
      <trkpt lat="44.83827" lon="-0.50541">
        <ele>14</ele>
        <time>2016-01-20T12:37:05Z</time>
      </trkpt>
      <trkpt lat="44.83827" lon="-0.50529">
        <ele>15</ele>
        <time>2016-01-20T12:37:12Z</time>
      </trkpt>
      <trkpt lat="44.83825" lon="-0.50518">
        <ele>13</ele>
        <time>2016-01-20T12:37:18Z</time>
      </trkpt>
      <trkpt lat="44.83822" lon="-0.50507">
        <ele>11</ele>
        <time>2016-01-20T12:37:25Z</time>
      </trkpt>
      <trkpt lat="44.83818" lon="-0.50497">
        <ele>9</ele>
        <time>2016-01-20T12:37:30Z</time>
      </trkpt>
      <trkpt lat="44.83815" lon="-0.50487">
        <ele>10</ele>
        <time>2016-01-20T12:37:36Z</time>
      </trkpt>
      <trkpt lat="44.8381" lon="-0.50477">
        <ele>11</ele>
        <time>2016-01-20T12:37:42Z</time>
      </trkpt>
      <trkpt lat="44.83806" lon="-0.50467">
        <ele>10</ele>
        <time>2016-01-20T12:37:49Z</time>
      </trkpt>
      <trkpt lat="44.83802" lon="-0.50458">
        <ele>10</ele>
        <time>2016-01-20T12:37:55Z</time>
      </trkpt>
      <trkpt lat="44.83797" lon="-0.50448">
        <ele>11</ele>
        <time>2016-01-20T12:38:01Z</time>
      </trkpt>
      <trkpt lat="44.83792" lon="-0.50439">
        <ele>12</ele>
        <time>2016-01-20T12:38:07Z</time>
      </trkpt>
      <trkpt lat="44.83785" lon="-0.50431">
        <ele>17</ele>
        <time>2016-01-20T12:38:14Z</time>
      </trkpt>
      <trkpt lat="44.83779" lon="-0.50423">
        <ele>17</ele>
        <time>2016-01-20T12:38:21Z</time>
      </trkpt>
      <trkpt lat="44.83773" lon="-0.50414">
        <ele>16</ele>
        <time>2016-01-20T12:38:28Z</time>
      </trkpt>
      <trkpt lat="44.83767" lon="-0.50406">
        <ele>13</ele>
        <time>2016-01-20T12:38:34Z</time>
      </trkpt>
      <trkpt lat="44.83761" lon="-0.50398">
        <ele>13</ele>
        <time>2016-01-20T12:38:42Z</time>
      </trkpt>
      <trkpt lat="44.83755" lon="-0.5039">
        <ele>15</ele>
        <time>2016-01-20T12:38:51Z</time>
      </trkpt>
      <trkpt lat="44.83749" lon="-0.50381">
        <ele>17</ele>
        <time>2016-01-20T12:38:59Z</time>
      </trkpt>
      <trkpt lat="44.83744" lon="-0.50374">
        <ele>18</ele>
        <time>2016-01-20T12:39:05Z</time>
      </trkpt>
      <trkpt lat="44.83738" lon="-0.50365">
        <ele>17</ele>
        <time>2016-01-20T12:39:11Z</time>
      </trkpt>
      <trkpt lat="44.83732" lon="-0.50357">
        <ele>18</ele>
        <time>2016-01-20T12:39:18Z</time>
      </trkpt>
      <trkpt lat="44.83726" lon="-0.5035">
        <ele>14</ele>
        <time>2016-01-20T12:39:24Z</time>
      </trkpt>
      <trkpt lat="44.83721" lon="-0.50342">
        <ele>12</ele>
        <time>2016-01-20T12:39:29Z</time>
      </trkpt>
      <trkpt lat="44.83716" lon="-0.50333">
        <ele>14</ele>
        <time>2016-01-20T12:39:34Z</time>
      </trkpt>
      <trkpt lat="44.8371" lon="-0.50324">
        <ele>13</ele>
        <time>2016-01-20T12:39:41Z</time>
      </trkpt>
      <trkpt lat="44.83704" lon="-0.50315">
        <ele>11</ele>
        <time>2016-01-20T12:39:48Z</time>
      </trkpt>
      <trkpt lat="44.83698" lon="-0.50306">
        <ele>11</ele>
        <time>2016-01-20T12:39:54Z</time>
      </trkpt>
      <trkpt lat="44.83692" lon="-0.50299">
        <ele>11</ele>
        <time>2016-01-20T12:40:00Z</time>
      </trkpt>
      <trkpt lat="44.83685" lon="-0.50293">
        <ele>11</ele>
        <time>2016-01-20T12:40:06Z</time>
      </trkpt>
      <trkpt lat="44.83678" lon="-0.50287">
        <ele>13</ele>
        <time>2016-01-20T12:40:12Z</time>
      </trkpt>
      <trkpt lat="44.8367" lon="-0.50282">
        <ele>14</ele>
        <time>2016-01-20T12:40:18Z</time>
      </trkpt>
      <trkpt lat="44.83661" lon="-0.5028">
        <ele>16</ele>
        <time>2016-01-20T12:40:26Z</time>
      </trkpt>
      <trkpt lat="44.83653" lon="-0.50275">
        <ele>18</ele>
        <time>2016-01-20T12:40:33Z</time>
      </trkpt>
      <trkpt lat="44.83657" lon="-0.50264">
        <ele>20</ele>
        <time>2016-01-20T12:40:44Z</time>
      </trkpt>
      <trkpt lat="44.83656" lon="-0.50254">
        <ele>17</ele>
        <time>2016-01-20T12:40:50Z</time>
      </trkpt>
      <trkpt lat="44.83656" lon="-0.50244">
        <ele>15</ele>
        <time>2016-01-20T12:40:55Z</time>
      </trkpt>
      <trkpt lat="44.83655" lon="-0.50232">
        <ele>14</ele>
        <time>2016-01-20T12:41:00Z</time>
      </trkpt>
      <trkpt lat="44.83656" lon="-0.50219">
        <ele>13</ele>
        <time>2016-01-20T12:41:06Z</time>
      </trkpt>
      <trkpt lat="44.83659" lon="-0.50208">
        <ele>13</ele>
        <time>2016-01-20T12:41:12Z</time>
      </trkpt>
      <trkpt lat="44.83662" lon="-0.50196">
        <ele>12</ele>
        <time>2016-01-20T12:41:19Z</time>
      </trkpt>
      <trkpt lat="44.83663" lon="-0.50184">
        <ele>12</ele>
        <time>2016-01-20T12:41:27Z</time>
      </trkpt>
      <trkpt lat="44.83664" lon="-0.50173">
        <ele>13</ele>
        <time>2016-01-20T12:41:33Z</time>
      </trkpt>
      <trkpt lat="44.83665" lon="-0.50161">
        <ele>14</ele>
        <time>2016-01-20T12:41:39Z</time>
      </trkpt>
      <trkpt lat="44.83667" lon="-0.50149">
        <ele>13</ele>
        <time>2016-01-20T12:41:45Z</time>
      </trkpt>
      <trkpt lat="44.83667" lon="-0.50137">
        <ele>13</ele>
        <time>2016-01-20T12:41:52Z</time>
      </trkpt>
      <trkpt lat="44.83664" lon="-0.50126">
        <ele>13</ele>
        <time>2016-01-20T12:41:58Z</time>
      </trkpt>
      <trkpt lat="44.83661" lon="-0.50117">
        <ele>15</ele>
        <time>2016-01-20T12:42:05Z</time>
      </trkpt>
      <trkpt lat="44.83655" lon="-0.50107">
        <ele>14</ele>
        <time>2016-01-20T12:42:12Z</time>
      </trkpt>
      <trkpt lat="44.8365" lon="-0.50098">
        <ele>12</ele>
        <time>2016-01-20T12:42:17Z</time>
      </trkpt>
      <trkpt lat="44.83648" lon="-0.50086">
        <ele>11</ele>
        <time>2016-01-20T12:42:23Z</time>
      </trkpt>
      <trkpt lat="44.83652" lon="-0.50076">
        <ele>13</ele>
        <time>2016-01-20T12:42:30Z</time>
      </trkpt>
      <trkpt lat="44.83656" lon="-0.50067">
        <ele>14</ele>
        <time>2016-01-20T12:42:36Z</time>
      </trkpt>
      <trkpt lat="44.8366" lon="-0.50055">
        <ele>14</ele>
        <time>2016-01-20T12:42:43Z</time>
      </trkpt>
      <trkpt lat="44.83663" lon="-0.50046">
        <ele>13</ele>
        <time>2016-01-20T12:42:50Z</time>
      </trkpt>
      <trkpt lat="44.83666" lon="-0.50034">
        <ele>7</ele>
        <time>2016-01-20T12:42:59Z</time>
      </trkpt>
      <trkpt lat="44.8367" lon="-0.50023">
        <ele>1</ele>
        <time>2016-01-20T12:43:07Z</time>
      </trkpt>
      <trkpt lat="44.83674" lon="-0.50011">
        <ele>-2</ele>
        <time>2016-01-20T12:43:15Z</time>
      </trkpt>
      <trkpt lat="44.83674" lon="-0.5">
        <ele>-5</ele>
        <time>2016-01-20T12:43:21Z</time>
      </trkpt>
      <trkpt lat="44.83677" lon="-0.49989">
        <ele>-7</ele>
        <time>2016-01-20T12:43:29Z</time>
      </trkpt>
      <trkpt lat="44.83675" lon="-0.49977">
        <ele>-10</ele>
        <time>2016-01-20T12:43:35Z</time>
      </trkpt>
      <trkpt lat="44.83681" lon="-0.49969">
        <ele>-8</ele>
        <time>2016-01-20T12:43:40Z</time>
      </trkpt>
      <trkpt lat="44.83688" lon="-0.49968">
        <ele>-4</ele>
        <time>2016-01-20T12:43:45Z</time>
      </trkpt>
      <trkpt lat="44.83697" lon="-0.49968">
        <ele>70.1</ele>
        <time>2016-01-20T12:43:50Z</time>
      </trkpt>
      <trkpt lat="44.83704" lon="-0.49967">
        <ele>1</ele>
        <time>2016-01-20T12:43:54Z</time>
      </trkpt>
      <trkpt lat="44.83712" lon="-0.49969">
        <ele>3</ele>
        <time>2016-01-20T12:43:59Z</time>
      </trkpt>
      <trkpt lat="44.8372" lon="-0.49973">
        <ele>8</ele>
        <time>2016-01-20T12:44:04Z</time>
      </trkpt>
      <trkpt lat="44.83728" lon="-0.49976">
        <ele>12</ele>
        <time>2016-01-20T12:44:10Z</time>
      </trkpt>
      <trkpt lat="44.83735" lon="-0.49984">
        <ele>17</ele>
        <time>2016-01-20T12:44:16Z</time>
      </trkpt>
      <trkpt lat="44.83742" lon="-0.49991">
        <ele>20</ele>
        <time>2016-01-20T12:44:22Z</time>
      </trkpt>
      <trkpt lat="44.8375" lon="-0.49996">
        <ele>21</ele>
        <time>2016-01-20T12:44:28Z</time>
      </trkpt>
      <trkpt lat="44.83757" lon="-0.50001">
        <ele>21</ele>
        <time>2016-01-20T12:44:34Z</time>
      </trkpt>
      <trkpt lat="44.83765" lon="-0.50006">
        <ele>21</ele>
        <time>2016-01-20T12:44:40Z</time>
      </trkpt>
      <trkpt lat="44.83772" lon="-0.50012">
        <ele>18</ele>
        <time>2016-01-20T12:44:46Z</time>
      </trkpt>
      <trkpt lat="44.83779" lon="-0.50018">
        <ele>15</ele>
        <time>2016-01-20T12:44:54Z</time>
      </trkpt>
      <trkpt lat="44.83786" lon="-0.50024">
        <ele>14</ele>
        <time>2016-01-20T12:45:01Z</time>
      </trkpt>
      <trkpt lat="44.83794" lon="-0.50028">
        <ele>13</ele>
        <time>2016-01-20T12:45:08Z</time>
      </trkpt>
      <trkpt lat="44.83801" lon="-0.50033">
        <ele>15</ele>
        <time>2016-01-20T12:45:15Z</time>
      </trkpt>
      <trkpt lat="44.83808" lon="-0.50037">
        <ele>18</ele>
        <time>2016-01-20T12:45:22Z</time>
      </trkpt>
      <trkpt lat="44.83816" lon="-0.50042">
        <ele>22</ele>
        <time>2016-01-20T12:45:28Z</time>
      </trkpt>
      <trkpt lat="44.83824" lon="-0.50048">
        <ele>25</ele>
        <time>2016-01-20T12:45:34Z</time>
      </trkpt>
      <trkpt lat="44.83832" lon="-0.50054">
        <ele>25</ele>
        <time>2016-01-20T12:45:42Z</time>
      </trkpt>
      <trkpt lat="44.8384" lon="-0.50057">
        <ele>25</ele>
        <time>2016-01-20T12:45:50Z</time>
      </trkpt>
      <trkpt lat="44.83848" lon="-0.50058">
        <ele>24</ele>
        <time>2016-01-20T12:45:57Z</time>
      </trkpt>
      <trkpt lat="44.83856" lon="-0.50057">
        <ele>27</ele>
        <time>2016-01-20T12:46:03Z</time>
      </trkpt>
      <trkpt lat="44.83864" lon="-0.50054">
        <ele>27</ele>
        <time>2016-01-20T12:46:11Z</time>
      </trkpt>
      <trkpt lat="44.83873" lon="-0.50053">
        <ele>26</ele>
        <time>2016-01-20T12:46:19Z</time>
      </trkpt>
      <trkpt lat="44.83881" lon="-0.50052">
        <ele>23</ele>
        <time>2016-01-20T12:46:26Z</time>
      </trkpt>
      <trkpt lat="44.83889" lon="-0.50051">
        <ele>24</ele>
        <time>2016-01-20T12:46:32Z</time>
      </trkpt>
      <trkpt lat="44.83898" lon="-0.50051">
        <ele>23</ele>
        <time>2016-01-20T12:46:38Z</time>
      </trkpt>
      <trkpt lat="44.83906" lon="-0.50051">
        <ele>23</ele>
        <time>2016-01-20T12:46:44Z</time>
      </trkpt>
      <trkpt lat="44.83915" lon="-0.5005">
        <ele>23</ele>
        <time>2016-01-20T12:46:51Z</time>
      </trkpt>
      <trkpt lat="44.83923" lon="-0.50048">
        <ele>23</ele>
        <time>2016-01-20T12:46:57Z</time>
      </trkpt>
      <trkpt lat="44.83931" lon="-0.50047">
        <ele>22</ele>
        <time>2016-01-20T12:47:04Z</time>
      </trkpt>
      <trkpt lat="44.83939" lon="-0.50045">
        <ele>20</ele>
        <time>2016-01-20T12:47:12Z</time>
      </trkpt>
      <trkpt lat="44.83947" lon="-0.50044">
        <ele>21</ele>
        <time>2016-01-20T12:47:18Z</time>
      </trkpt>
      <trkpt lat="44.83954" lon="-0.50043">
        <ele>21</ele>
        <time>2016-01-20T12:47:24Z</time>
      </trkpt>
      <trkpt lat="44.83963" lon="-0.50043">
        <ele>20</ele>
        <time>2016-01-20T12:47:30Z</time>
      </trkpt>
      <trkpt lat="44.83972" lon="-0.50043">
        <ele>19</ele>
        <time>2016-01-20T12:47:37Z</time>
      </trkpt>
      <trkpt lat="44.83981" lon="-0.50042">
        <ele>19</ele>
        <time>2016-01-20T12:47:44Z</time>
      </trkpt>
      <trkpt lat="44.83988" lon="-0.50043">
        <ele>18</ele>
        <time>2016-01-20T12:47:50Z</time>
      </trkpt>
      <trkpt lat="44.83996" lon="-0.50039">
        <ele>17</ele>
        <time>2016-01-20T12:47:57Z</time>
      </trkpt>
      <trkpt lat="44.84005" lon="-0.50036">
        <ele>17</ele>
        <time>2016-01-20T12:48:03Z</time>
      </trkpt>
      <trkpt lat="44.84013" lon="-0.50036">
        <ele>17</ele>
        <time>2016-01-20T12:48:09Z</time>
      </trkpt>
      <trkpt lat="44.84021" lon="-0.50031">
        <ele>17</ele>
        <time>2016-01-20T12:48:17Z</time>
      </trkpt>
      <trkpt lat="44.8403" lon="-0.50029">
        <ele>20</ele>
        <time>2016-01-20T12:48:23Z</time>
      </trkpt>
      <trkpt lat="44.84038" lon="-0.50026">
        <ele>21</ele>
        <time>2016-01-20T12:48:30Z</time>
      </trkpt>
      <trkpt lat="44.84046" lon="-0.50024">
        <ele>22</ele>
        <time>2016-01-20T12:48:36Z</time>
      </trkpt>
      <trkpt lat="44.84054" lon="-0.50024">
        <ele>19</ele>
        <time>2016-01-20T12:48:43Z</time>
      </trkpt>
      <trkpt lat="44.84062" lon="-0.50021">
        <ele>19</ele>
        <time>2016-01-20T12:48:51Z</time>
      </trkpt>
      <trkpt lat="44.8407" lon="-0.50019">
        <ele>18</ele>
        <time>2016-01-20T12:48:58Z</time>
      </trkpt>
      <trkpt lat="44.84078" lon="-0.50017">
        <ele>18</ele>
        <time>2016-01-20T12:49:03Z</time>
      </trkpt>
      <trkpt lat="44.84087" lon="-0.50015">
        <ele>20</ele>
        <time>2016-01-20T12:49:10Z</time>
      </trkpt>
      <trkpt lat="44.84095" lon="-0.50012">
        <ele>21</ele>
        <time>2016-01-20T12:49:18Z</time>
      </trkpt>
      <trkpt lat="44.84103" lon="-0.50007">
        <ele>22</ele>
        <time>2016-01-20T12:49:25Z</time>
      </trkpt>
      <trkpt lat="44.84111" lon="-0.50006">
        <ele>19</ele>
        <time>2016-01-20T12:49:31Z</time>
      </trkpt>
      <trkpt lat="44.84118" lon="-0.50004">
        <ele>19</ele>
        <time>2016-01-20T12:49:36Z</time>
      </trkpt>
      <trkpt lat="44.84127" lon="-0.50002">
        <ele>17</ele>
        <time>2016-01-20T12:49:42Z</time>
      </trkpt>
      <trkpt lat="44.84135" lon="-0.5">
        <ele>14</ele>
        <time>2016-01-20T12:49:49Z</time>
      </trkpt>
      <trkpt lat="44.84143" lon="-0.49996">
        <ele>11</ele>
        <time>2016-01-20T12:49:57Z</time>
      </trkpt>
      <trkpt lat="44.8415" lon="-0.49995">
        <ele>10</ele>
        <time>2016-01-20T12:50:02Z</time>
      </trkpt>
      <trkpt lat="44.84158" lon="-0.49991">
        <ele>11</ele>
        <time>2016-01-20T12:50:08Z</time>
      </trkpt>
      <trkpt lat="44.84166" lon="-0.49987">
        <ele>17</ele>
        <time>2016-01-20T12:50:13Z</time>
      </trkpt>
      <trkpt lat="44.84175" lon="-0.49986">
        <ele>19</ele>
        <time>2016-01-20T12:50:19Z</time>
      </trkpt>
      <trkpt lat="44.84183" lon="-0.49984">
        <ele>16</ele>
        <time>2016-01-20T12:50:25Z</time>
      </trkpt>
      <trkpt lat="44.84191" lon="-0.49981">
        <ele>16</ele>
        <time>2016-01-20T12:50:30Z</time>
      </trkpt>
      <trkpt lat="44.84194" lon="-0.4997">
        <ele>14</ele>
        <time>2016-01-20T12:50:38Z</time>
      </trkpt>
      <trkpt lat="44.84192" lon="-0.49958">
        <ele>13</ele>
        <time>2016-01-20T12:50:46Z</time>
      </trkpt>
      <trkpt lat="44.84188" lon="-0.49948">
        <ele>14</ele>
        <time>2016-01-20T12:50:54Z</time>
      </trkpt>
      <trkpt lat="44.84188" lon="-0.49936">
        <ele>19</ele>
        <time>2016-01-20T12:51:02Z</time>
      </trkpt>
      <trkpt lat="44.84185" lon="-0.49925">
        <ele>23</ele>
        <time>2016-01-20T12:51:11Z</time>
      </trkpt>
      <trkpt lat="44.84182" lon="-0.49915">
        <ele>24</ele>
        <time>2016-01-20T12:51:18Z</time>
      </trkpt>
      <trkpt lat="44.84178" lon="-0.49906">
        <ele>24</ele>
        <time>2016-01-20T12:51:24Z</time>
      </trkpt>
      <trkpt lat="44.84173" lon="-0.49897">
        <ele>23</ele>
        <time>2016-01-20T12:51:28Z</time>
      </trkpt>
      <trkpt lat="44.8417" lon="-0.49886">
        <ele>21</ele>
        <time>2016-01-20T12:51:37Z</time>
      </trkpt>
      <trkpt lat="44.84165" lon="-0.49876">
        <ele>20</ele>
        <time>2016-01-20T12:51:46Z</time>
      </trkpt>
      <trkpt lat="44.84158" lon="-0.49871">
        <ele>23</ele>
        <time>2016-01-20T12:51:53Z</time>
      </trkpt>
      <trkpt lat="44.8415" lon="-0.49868">
        <ele>25</ele>
        <time>2016-01-20T12:51:58Z</time>
      </trkpt>
      <trkpt lat="44.84143" lon="-0.49861">
        <ele>23</ele>
        <time>2016-01-20T12:52:05Z</time>
      </trkpt>
      <trkpt lat="44.84137" lon="-0.49854">
        <ele>21</ele>
        <time>2016-01-20T12:52:12Z</time>
      </trkpt>
      <trkpt lat="44.84132" lon="-0.49844">
        <ele>22</ele>
        <time>2016-01-20T12:52:19Z</time>
      </trkpt>
      <trkpt lat="44.84126" lon="-0.49837">
        <ele>24</ele>
        <time>2016-01-20T12:52:23Z</time>
      </trkpt>
      <trkpt lat="44.84119" lon="-0.49829">
        <ele>25</ele>
        <time>2016-01-20T12:52:29Z</time>
      </trkpt>
      <trkpt lat="44.84114" lon="-0.49819">
        <ele>24</ele>
        <time>2016-01-20T12:52:37Z</time>
      </trkpt>
      <trkpt lat="44.8411" lon="-0.49811">
        <ele>23</ele>
        <time>2016-01-20T12:52:43Z</time>
      </trkpt>
      <trkpt lat="44.84103" lon="-0.49802">
        <ele>25</ele>
        <time>2016-01-20T12:52:49Z</time>
      </trkpt>
      <trkpt lat="44.84096" lon="-0.49796">
        <ele>24</ele>
        <time>2016-01-20T12:52:55Z</time>
      </trkpt>
      <trkpt lat="44.84091" lon="-0.49787">
        <ele>22</ele>
        <time>2016-01-20T12:53:01Z</time>
      </trkpt>
      <trkpt lat="44.84086" lon="-0.49778">
        <ele>21</ele>
        <time>2016-01-20T12:53:08Z</time>
      </trkpt>
      <trkpt lat="44.84081" lon="-0.4977">
        <ele>21</ele>
        <time>2016-01-20T12:53:13Z</time>
      </trkpt>
      <trkpt lat="44.84075" lon="-0.49761">
        <ele>21</ele>
        <time>2016-01-20T12:53:18Z</time>
      </trkpt>
      <trkpt lat="44.84071" lon="-0.49753">
        <ele>22</ele>
        <time>2016-01-20T12:53:23Z</time>
      </trkpt>
      <trkpt lat="44.84065" lon="-0.49742">
        <ele>20</ele>
        <time>2016-01-20T12:53:28Z</time>
      </trkpt>
      <trkpt lat="44.84061" lon="-0.49732">
        <ele>20</ele>
        <time>2016-01-20T12:53:33Z</time>
      </trkpt>
      <trkpt lat="44.84059" lon="-0.4972">
        <ele>18</ele>
        <time>2016-01-20T12:53:39Z</time>
      </trkpt>
      <trkpt lat="44.84059" lon="-0.49709">
        <ele>15</ele>
        <time>2016-01-20T12:53:45Z</time>
      </trkpt>
      <trkpt lat="44.84061" lon="-0.49698">
        <ele>15</ele>
        <time>2016-01-20T12:53:51Z</time>
      </trkpt>
      <trkpt lat="44.84062" lon="-0.49687">
        <ele>14</ele>
        <time>2016-01-20T12:53:57Z</time>
      </trkpt>
      <trkpt lat="44.84069" lon="-0.4968">
        <ele>13</ele>
        <time>2016-01-20T12:54:03Z</time>
      </trkpt>
      <trkpt lat="44.84075" lon="-0.49672">
        <ele>15</ele>
        <time>2016-01-20T12:54:09Z</time>
      </trkpt>
      <trkpt lat="44.84084" lon="-0.49667">
        <ele>13</ele>
        <time>2016-01-20T12:54:17Z</time>
      </trkpt>
      <trkpt lat="44.84091" lon="-0.4966">
        <ele>11</ele>
        <time>2016-01-20T12:54:24Z</time>
      </trkpt>
      <trkpt lat="44.84098" lon="-0.49653">
        <ele>11</ele>
        <time>2016-01-20T12:54:30Z</time>
      </trkpt>
      <trkpt lat="44.84105" lon="-0.49647">
        <ele>12</ele>
        <time>2016-01-20T12:54:35Z</time>
      </trkpt>
      <trkpt lat="44.84111" lon="-0.49639">
        <ele>8</ele>
        <time>2016-01-20T12:54:42Z</time>
      </trkpt>
      <trkpt lat="44.84115" lon="-0.49629">
        <ele>8</ele>
        <time>2016-01-20T12:54:49Z</time>
      </trkpt>
      <trkpt lat="44.84118" lon="-0.49618">
        <ele>11</ele>
        <time>2016-01-20T12:54:55Z</time>
      </trkpt>
      <trkpt lat="44.8412" lon="-0.49607">
        <ele>11</ele>
        <time>2016-01-20T12:55:01Z</time>
      </trkpt>
      <trkpt lat="44.84124" lon="-0.49597">
        <ele>12</ele>
        <time>2016-01-20T12:55:06Z</time>
      </trkpt>
      <trkpt lat="44.84124" lon="-0.49584">
        <ele>12</ele>
        <time>2016-01-20T12:55:13Z</time>
      </trkpt>
      <trkpt lat="44.8413" lon="-0.49578">
        <ele>16</ele>
        <time>2016-01-20T12:55:22Z</time>
      </trkpt>
      <trkpt lat="44.84137" lon="-0.49571">
        <ele>17</ele>
        <time>2016-01-20T12:55:28Z</time>
      </trkpt>
      <trkpt lat="44.84144" lon="-0.49568">
        <ele>18</ele>
        <time>2016-01-20T12:55:32Z</time>
      </trkpt>
      <trkpt lat="44.84152" lon="-0.49571">
        <ele>19</ele>
        <time>2016-01-20T12:55:38Z</time>
      </trkpt>
      <trkpt lat="44.8416" lon="-0.49573">
        <ele>19</ele>
        <time>2016-01-20T12:55:43Z</time>
      </trkpt>
      <trkpt lat="44.84168" lon="-0.49576">
        <ele>18</ele>
        <time>2016-01-20T12:55:49Z</time>
      </trkpt>
      <trkpt lat="44.84176" lon="-0.4958">
        <ele>19</ele>
        <time>2016-01-20T12:55:55Z</time>
      </trkpt>
      <trkpt lat="44.84184" lon="-0.49578">
        <ele>20</ele>
        <time>2016-01-20T12:56:03Z</time>
      </trkpt>
      <trkpt lat="44.84192" lon="-0.49583">
        <ele>18</ele>
        <time>2016-01-20T12:56:10Z</time>
      </trkpt>
      <trkpt lat="44.84196" lon="-0.49592">
        <ele>19</ele>
        <time>2016-01-20T12:56:16Z</time>
      </trkpt>
      <trkpt lat="44.84197" lon="-0.49604">
        <ele>18</ele>
        <time>2016-01-20T12:56:24Z</time>
      </trkpt>
      <trkpt lat="44.84202" lon="-0.49614">
        <ele>18</ele>
        <time>2016-01-20T12:56:33Z</time>
      </trkpt>
      <trkpt lat="44.84208" lon="-0.4962">
        <ele>20</ele>
        <time>2016-01-20T12:56:39Z</time>
      </trkpt>
      <trkpt lat="44.84213" lon="-0.49628">
        <ele>25</ele>
        <time>2016-01-20T12:56:43Z</time>
      </trkpt>
      <trkpt lat="44.84217" lon="-0.49638">
        <ele>34</ele>
        <time>2016-01-20T12:56:49Z</time>
      </trkpt>
      <trkpt lat="44.84225" lon="-0.49644">
        <ele>40</ele>
        <time>2016-01-20T12:56:56Z</time>
      </trkpt>
      <trkpt lat="44.84234" lon="-0.49646">
        <ele>41</ele>
        <time>2016-01-20T12:57:03Z</time>
      </trkpt>
      <trkpt lat="44.84242" lon="-0.49647">
        <ele>38</ele>
        <time>2016-01-20T12:57:12Z</time>
      </trkpt>
      <trkpt lat="44.8425" lon="-0.49652">
        <ele>38</ele>
        <time>2016-01-20T12:57:18Z</time>
      </trkpt>
      <trkpt lat="44.84257" lon="-0.49658">
        <ele>37</ele>
        <time>2016-01-20T12:57:24Z</time>
      </trkpt>
      <trkpt lat="44.84265" lon="-0.49663">
        <ele>39</ele>
        <time>2016-01-20T12:57:31Z</time>
      </trkpt>
      <trkpt lat="44.84273" lon="-0.49669">
        <ele>41</ele>
        <time>2016-01-20T12:57:37Z</time>
      </trkpt>
      <trkpt lat="44.84281" lon="-0.49673">
        <ele>42</ele>
        <time>2016-01-20T12:57:43Z</time>
      </trkpt>
      <trkpt lat="44.84289" lon="-0.49675">
        <ele>42</ele>
        <time>2016-01-20T12:57:50Z</time>
      </trkpt>
      <trkpt lat="44.84297" lon="-0.49675">
        <ele>41</ele>
        <time>2016-01-20T12:57:56Z</time>
      </trkpt>
      <trkpt lat="44.84305" lon="-0.49675">
        <ele>41</ele>
        <time>2016-01-20T12:58:01Z</time>
      </trkpt>
      <trkpt lat="44.84313" lon="-0.49673">
        <ele>37</ele>
        <time>2016-01-20T12:58:07Z</time>
      </trkpt>
      <trkpt lat="44.84321" lon="-0.49672">
        <ele>36</ele>
        <time>2016-01-20T12:58:12Z</time>
      </trkpt>
      <trkpt lat="44.84328" lon="-0.4967">
        <ele>33</ele>
        <time>2016-01-20T12:58:17Z</time>
      </trkpt>
      <trkpt lat="44.84336" lon="-0.49665">
        <ele>31</ele>
        <time>2016-01-20T12:58:23Z</time>
      </trkpt>
      <trkpt lat="44.84344" lon="-0.49661">
        <ele>30</ele>
        <time>2016-01-20T12:58:29Z</time>
      </trkpt>
      <trkpt lat="44.84351" lon="-0.49657">
        <ele>27</ele>
        <time>2016-01-20T12:58:35Z</time>
      </trkpt>
      <trkpt lat="44.84359" lon="-0.49652">
        <ele>26</ele>
        <time>2016-01-20T12:58:41Z</time>
      </trkpt>
      <trkpt lat="44.84367" lon="-0.49649">
        <ele>27</ele>
        <time>2016-01-20T12:58:46Z</time>
      </trkpt>
      <trkpt lat="44.84375" lon="-0.49645">
        <ele>28</ele>
        <time>2016-01-20T12:58:52Z</time>
      </trkpt>
      <trkpt lat="44.84383" lon="-0.49643">
        <ele>28</ele>
        <time>2016-01-20T12:58:58Z</time>
      </trkpt>
      <trkpt lat="44.84392" lon="-0.49642">
        <ele>27</ele>
        <time>2016-01-20T12:59:05Z</time>
      </trkpt>
      <trkpt lat="44.84401" lon="-0.49644">
        <ele>28</ele>
        <time>2016-01-20T12:59:11Z</time>
      </trkpt>
      <trkpt lat="44.84409" lon="-0.49645">
        <ele>27</ele>
        <time>2016-01-20T12:59:17Z</time>
      </trkpt>
      <trkpt lat="44.84417" lon="-0.49647">
        <ele>27</ele>
        <time>2016-01-20T12:59:23Z</time>
      </trkpt>
      <trkpt lat="44.84426" lon="-0.49649">
        <ele>27</ele>
        <time>2016-01-20T12:59:30Z</time>
      </trkpt>
      <trkpt lat="44.84433" lon="-0.49651">
        <ele>27</ele>
        <time>2016-01-20T12:59:36Z</time>
      </trkpt>
      <trkpt lat="44.84442" lon="-0.49653">
        <ele>25</ele>
        <time>2016-01-20T12:59:43Z</time>
      </trkpt>
      <trkpt lat="44.8445" lon="-0.49654">
        <ele>27</ele>
        <time>2016-01-20T12:59:49Z</time>
      </trkpt>
      <trkpt lat="44.84458" lon="-0.49657">
        <ele>31</ele>
        <time>2016-01-20T12:59:54Z</time>
      </trkpt>
      <trkpt lat="44.84466" lon="-0.49659">
        <ele>32</ele>
        <time>2016-01-20T13:00:01Z</time>
      </trkpt>
      <trkpt lat="44.84475" lon="-0.4966">
        <ele>31</ele>
        <time>2016-01-20T13:00:07Z</time>
      </trkpt>
      <trkpt lat="44.84482" lon="-0.49662">
        <ele>32</ele>
        <time>2016-01-20T13:00:13Z</time>
      </trkpt>
      <trkpt lat="44.8449" lon="-0.49663">
        <ele>32</ele>
        <time>2016-01-20T13:00:19Z</time>
      </trkpt>
      <trkpt lat="44.84499" lon="-0.49666">
        <ele>33</ele>
        <time>2016-01-20T13:00:26Z</time>
      </trkpt>
      <trkpt lat="44.84507" lon="-0.49667">
        <ele>33</ele>
        <time>2016-01-20T13:00:32Z</time>
      </trkpt>
      <trkpt lat="44.84515" lon="-0.4967">
        <ele>33</ele>
        <time>2016-01-20T13:00:38Z</time>
      </trkpt>
      <trkpt lat="44.84524" lon="-0.4967">
        <ele>31</ele>
        <time>2016-01-20T13:00:44Z</time>
      </trkpt>
      <trkpt lat="44.84532" lon="-0.49672">
        <ele>30</ele>
        <time>2016-01-20T13:00:50Z</time>
      </trkpt>
      <trkpt lat="44.84541" lon="-0.49674">
        <ele>30</ele>
        <time>2016-01-20T13:00:57Z</time>
      </trkpt>
      <trkpt lat="44.84549" lon="-0.49675">
        <ele>29</ele>
        <time>2016-01-20T13:01:03Z</time>
      </trkpt>
      <trkpt lat="44.84557" lon="-0.49677">
        <ele>28</ele>
        <time>2016-01-20T13:01:08Z</time>
      </trkpt>
      <trkpt lat="44.84565" lon="-0.49677">
        <ele>28</ele>
        <time>2016-01-20T13:01:15Z</time>
      </trkpt>
      <trkpt lat="44.84572" lon="-0.49681">
        <ele>31</ele>
        <time>2016-01-20T13:01:22Z</time>
      </trkpt>
      <trkpt lat="44.8458" lon="-0.49683">
        <ele>32</ele>
        <time>2016-01-20T13:01:28Z</time>
      </trkpt>
      <trkpt lat="44.84588" lon="-0.49688">
        <ele>35</ele>
        <time>2016-01-20T13:01:34Z</time>
      </trkpt>
      <trkpt lat="44.84596" lon="-0.49693">
        <ele>39</ele>
        <time>2016-01-20T13:01:40Z</time>
      </trkpt>
      <trkpt lat="44.84605" lon="-0.49692">
        <ele>39</ele>
        <time>2016-01-20T13:01:47Z</time>
      </trkpt>
      <trkpt lat="44.84614" lon="-0.49693">
        <ele>38</ele>
        <time>2016-01-20T13:01:54Z</time>
      </trkpt>
      <trkpt lat="44.84622" lon="-0.49698">
        <ele>37</ele>
        <time>2016-01-20T13:02:01Z</time>
      </trkpt>
      <trkpt lat="44.8463" lon="-0.49699">
        <ele>36</ele>
        <time>2016-01-20T13:02:07Z</time>
      </trkpt>
      <trkpt lat="44.84638" lon="-0.49701">
        <ele>35</ele>
        <time>2016-01-20T13:02:13Z</time>
      </trkpt>
      <trkpt lat="44.84646" lon="-0.49703">
        <ele>34</ele>
        <time>2016-01-20T13:02:19Z</time>
      </trkpt>
      <trkpt lat="44.84654" lon="-0.49705">
        <ele>34</ele>
        <time>2016-01-20T13:02:25Z</time>
      </trkpt>
      <trkpt lat="44.84662" lon="-0.49706">
        <ele>34</ele>
        <time>2016-01-20T13:02:31Z</time>
      </trkpt>
      <trkpt lat="44.84671" lon="-0.49709">
        <ele>28</ele>
        <time>2016-01-20T13:02:38Z</time>
      </trkpt>
      <trkpt lat="44.84678" lon="-0.49713">
        <ele>27</ele>
        <time>2016-01-20T13:02:43Z</time>
      </trkpt>
      <trkpt lat="44.84686" lon="-0.49715">
        <ele>27</ele>
        <time>2016-01-20T13:02:50Z</time>
      </trkpt>
      <trkpt lat="44.84694" lon="-0.49722">
        <ele>31</ele>
        <time>2016-01-20T13:02:56Z</time>
      </trkpt>
      <trkpt lat="44.84701" lon="-0.49726">
        <ele>36</ele>
        <time>2016-01-20T13:03:03Z</time>
      </trkpt>
      <trkpt lat="44.84709" lon="-0.49725">
        <ele>35</ele>
        <time>2016-01-20T13:03:09Z</time>
      </trkpt>
      <trkpt lat="44.84716" lon="-0.49727">
        <ele>34</ele>
        <time>2016-01-20T13:03:14Z</time>
      </trkpt>
      <trkpt lat="44.84724" lon="-0.49729">
        <ele>34</ele>
        <time>2016-01-20T13:03:21Z</time>
      </trkpt>
      <trkpt lat="44.84731" lon="-0.49735">
        <ele>38</ele>
        <time>2016-01-20T13:03:26Z</time>
      </trkpt>
      <trkpt lat="44.84739" lon="-0.49733">
        <ele>37</ele>
        <time>2016-01-20T13:03:32Z</time>
      </trkpt>
      <trkpt lat="44.84747" lon="-0.49733">
        <ele>36</ele>
        <time>2016-01-20T13:03:38Z</time>
      </trkpt>
      <trkpt lat="44.84755" lon="-0.49732">
        <ele>35</ele>
        <time>2016-01-20T13:03:44Z</time>
      </trkpt>
      <trkpt lat="44.84763" lon="-0.49732">
        <ele>34</ele>
        <time>2016-01-20T13:03:51Z</time>
      </trkpt>
      <trkpt lat="44.84772" lon="-0.49732">
        <ele>35</ele>
        <time>2016-01-20T13:03:58Z</time>
      </trkpt>
      <trkpt lat="44.8478" lon="-0.49734">
        <ele>35</ele>
        <time>2016-01-20T13:04:03Z</time>
      </trkpt>
      <trkpt lat="44.84788" lon="-0.49734">
        <ele>34</ele>
        <time>2016-01-20T13:04:09Z</time>
      </trkpt>
      <trkpt lat="44.84796" lon="-0.49735">
        <ele>32</ele>
        <time>2016-01-20T13:04:15Z</time>
      </trkpt>
      <trkpt lat="44.84805" lon="-0.49735">
        <ele>31</ele>
        <time>2016-01-20T13:04:21Z</time>
      </trkpt>
      <trkpt lat="44.84813" lon="-0.49734">
        <ele>29</ele>
        <time>2016-01-20T13:04:26Z</time>
      </trkpt>
      <trkpt lat="44.84821" lon="-0.49734">
        <ele>30</ele>
        <time>2016-01-20T13:04:31Z</time>
      </trkpt>
      <trkpt lat="44.84829" lon="-0.49732">
        <ele>31</ele>
        <time>2016-01-20T13:04:37Z</time>
      </trkpt>
      <trkpt lat="44.84837" lon="-0.4973">
        <ele>30</ele>
        <time>2016-01-20T13:04:42Z</time>
      </trkpt>
      <trkpt lat="44.84844" lon="-0.49725">
        <ele>30</ele>
        <time>2016-01-20T13:04:48Z</time>
      </trkpt>
      <trkpt lat="44.84852" lon="-0.49719">
        <ele>26</ele>
        <time>2016-01-20T13:04:55Z</time>
      </trkpt>
      <trkpt lat="44.84859" lon="-0.49714">
        <ele>25</ele>
        <time>2016-01-20T13:05:01Z</time>
      </trkpt>
      <trkpt lat="44.84867" lon="-0.49708">
        <ele>25</ele>
        <time>2016-01-20T13:05:08Z</time>
      </trkpt>
      <trkpt lat="44.84874" lon="-0.49703">
        <ele>25</ele>
        <time>2016-01-20T13:05:13Z</time>
      </trkpt>
      <trkpt lat="44.84882" lon="-0.49699">
        <ele>24</ele>
        <time>2016-01-20T13:05:19Z</time>
      </trkpt>
      <trkpt lat="44.8489" lon="-0.49694">
        <ele>24</ele>
        <time>2016-01-20T13:05:27Z</time>
      </trkpt>
      <trkpt lat="44.84898" lon="-0.49691">
        <ele>24</ele>
        <time>2016-01-20T13:05:33Z</time>
      </trkpt>
      <trkpt lat="44.84906" lon="-0.49688">
        <ele>22</ele>
        <time>2016-01-20T13:05:40Z</time>
      </trkpt>
      <trkpt lat="44.84913" lon="-0.49684">
        <ele>19</ele>
        <time>2016-01-20T13:05:45Z</time>
      </trkpt>
      <trkpt lat="44.84921" lon="-0.49678">
        <ele>20</ele>
        <time>2016-01-20T13:05:51Z</time>
      </trkpt>
      <trkpt lat="44.84929" lon="-0.49674">
        <ele>17</ele>
        <time>2016-01-20T13:05:58Z</time>
      </trkpt>
      <trkpt lat="44.84936" lon="-0.49671">
        <ele>15</ele>
        <time>2016-01-20T13:06:04Z</time>
      </trkpt>
      <trkpt lat="44.84945" lon="-0.49671">
        <ele>16</ele>
        <time>2016-01-20T13:06:10Z</time>
      </trkpt>
      <trkpt lat="44.8495" lon="-0.49661">
        <ele>12</ele>
        <time>2016-01-20T13:06:19Z</time>
      </trkpt>
      <trkpt lat="44.84951" lon="-0.49649">
        <ele>6</ele>
        <time>2016-01-20T13:06:27Z</time>
      </trkpt>
      <trkpt lat="44.84953" lon="-0.49638">
        <ele>4</ele>
        <time>2016-01-20T13:06:34Z</time>
      </trkpt>
      <trkpt lat="44.84958" lon="-0.49627">
        <ele>4</ele>
        <time>2016-01-20T13:06:40Z</time>
      </trkpt>
      <trkpt lat="44.84963" lon="-0.49619">
        <ele>5</ele>
        <time>2016-01-20T13:06:44Z</time>
      </trkpt>
      <trkpt lat="44.84966" lon="-0.49608">
        <ele>5</ele>
        <time>2016-01-20T13:06:50Z</time>
      </trkpt>
      <trkpt lat="44.84971" lon="-0.49598">
        <ele>5</ele>
        <time>2016-01-20T13:06:56Z</time>
      </trkpt>
      <trkpt lat="44.84974" lon="-0.49587">
        <ele>5</ele>
        <time>2016-01-20T13:07:02Z</time>
      </trkpt>
      <trkpt lat="44.84977" lon="-0.49576">
        <ele>5</ele>
        <time>2016-01-20T13:07:08Z</time>
      </trkpt>
      <trkpt lat="44.84978" lon="-0.49565">
        <ele>5</ele>
        <time>2016-01-20T13:07:14Z</time>
      </trkpt>
      <trkpt lat="44.84979" lon="-0.49554">
        <ele>5</ele>
        <time>2016-01-20T13:07:21Z</time>
      </trkpt>
      <trkpt lat="44.84983" lon="-0.49543">
        <ele>4</ele>
        <time>2016-01-20T13:07:26Z</time>
      </trkpt>
      <trkpt lat="44.84982" lon="-0.49532">
        <ele>5</ele>
        <time>2016-01-20T13:07:32Z</time>
      </trkpt>
      <trkpt lat="44.84987" lon="-0.49524">
        <ele>7</ele>
        <time>2016-01-20T13:07:37Z</time>
      </trkpt>
      <trkpt lat="44.8499" lon="-0.49514">
        <ele>6</ele>
        <time>2016-01-20T13:07:43Z</time>
      </trkpt>
      <trkpt lat="44.84993" lon="-0.49503">
        <ele>6</ele>
        <time>2016-01-20T13:07:49Z</time>
      </trkpt>
      <trkpt lat="44.84998" lon="-0.49494">
        <ele>5</ele>
        <time>2016-01-20T13:07:55Z</time>
      </trkpt>
      <trkpt lat="44.85001" lon="-0.49482">
        <ele>4</ele>
        <time>2016-01-20T13:08:03Z</time>
      </trkpt>
      <trkpt lat="44.85007" lon="-0.49476">
        <ele>4</ele>
        <time>2016-01-20T13:08:08Z</time>
      </trkpt>
      <trkpt lat="44.85014" lon="-0.49472">
        <ele>7</ele>
        <time>2016-01-20T13:08:13Z</time>
      </trkpt>
      <trkpt lat="44.85022" lon="-0.49473">
        <ele>7</ele>
        <time>2016-01-20T13:08:19Z</time>
      </trkpt>
      <trkpt lat="44.8503" lon="-0.49476">
        <ele>10</ele>
        <time>2016-01-20T13:08:24Z</time>
      </trkpt>
      <trkpt lat="44.85038" lon="-0.4948">
        <ele>12</ele>
        <time>2016-01-20T13:08:29Z</time>
      </trkpt>
      <trkpt lat="44.85045" lon="-0.49484">
        <ele>13</ele>
        <time>2016-01-20T13:08:34Z</time>
      </trkpt>
      <trkpt lat="44.85051" lon="-0.49491">
        <ele>18</ele>
        <time>2016-01-20T13:08:39Z</time>
      </trkpt>
      <trkpt lat="44.85059" lon="-0.49494">
        <ele>18</ele>
        <time>2016-01-20T13:08:45Z</time>
      </trkpt>
      <trkpt lat="44.85068" lon="-0.49498">
        <ele>17</ele>
        <time>2016-01-20T13:08:51Z</time>
      </trkpt>
      <trkpt lat="44.85075" lon="-0.49502">
        <ele>16</ele>
        <time>2016-01-20T13:08:59Z</time>
      </trkpt>
      <trkpt lat="44.85082" lon="-0.49507">
        <ele>17</ele>
        <time>2016-01-20T13:09:05Z</time>
      </trkpt>
      <trkpt lat="44.85088" lon="-0.49512">
        <ele>13</ele>
        <time>2016-01-20T13:09:14Z</time>
      </trkpt>
      <trkpt lat="44.85096" lon="-0.49516">
        <ele>10</ele>
        <time>2016-01-20T13:09:19Z</time>
      </trkpt>
      <trkpt lat="44.85104" lon="-0.4952">
        <ele>7</ele>
        <time>2016-01-20T13:09:27Z</time>
      </trkpt>
      <trkpt lat="44.85111" lon="-0.49523">
        <ele>3</ele>
        <time>2016-01-20T13:09:33Z</time>
      </trkpt>
      <trkpt lat="44.8512" lon="-0.49523">
        <ele>6</ele>
        <time>2016-01-20T13:09:39Z</time>
      </trkpt>
      <trkpt lat="44.85127" lon="-0.49526">
        <ele>6</ele>
        <time>2016-01-20T13:09:45Z</time>
      </trkpt>
      <trkpt lat="44.85136" lon="-0.49529">
        <ele>8</ele>
        <time>2016-01-20T13:09:51Z</time>
      </trkpt>
      <trkpt lat="44.85143" lon="-0.49535">
        <ele>8</ele>
        <time>2016-01-20T13:09:58Z</time>
      </trkpt>
      <trkpt lat="44.85151" lon="-0.49541">
        <ele>7</ele>
        <time>2016-01-20T13:10:03Z</time>
      </trkpt>
      <trkpt lat="44.85158" lon="-0.49545">
        <ele>8</ele>
        <time>2016-01-20T13:10:09Z</time>
      </trkpt>
      <trkpt lat="44.85166" lon="-0.4955">
        <ele>9</ele>
        <time>2016-01-20T13:10:14Z</time>
      </trkpt>
      <trkpt lat="44.85173" lon="-0.49555">
        <ele>9</ele>
        <time>2016-01-20T13:10:19Z</time>
      </trkpt>
      <trkpt lat="44.85181" lon="-0.49556">
        <ele>10</ele>
        <time>2016-01-20T13:10:31Z</time>
      </trkpt>
      <trkpt lat="44.8519" lon="-0.49558">
        <ele>10</ele>
        <time>2016-01-20T13:10:38Z</time>
      </trkpt>
      <trkpt lat="44.85198" lon="-0.49559">
        <ele>14</ele>
        <time>2016-01-20T13:10:44Z</time>
      </trkpt>
      <trkpt lat="44.85206" lon="-0.49562">
        <ele>15</ele>
        <time>2016-01-20T13:10:50Z</time>
      </trkpt>
      <trkpt lat="44.85215" lon="-0.49565">
        <ele>14</ele>
        <time>2016-01-20T13:10:57Z</time>
      </trkpt>
      <trkpt lat="44.85223" lon="-0.49564">
        <ele>12</ele>
        <time>2016-01-20T13:11:04Z</time>
      </trkpt>
      <trkpt lat="44.85231" lon="-0.49565">
        <ele>15</ele>
        <time>2016-01-20T13:11:09Z</time>
      </trkpt>
      <trkpt lat="44.8524" lon="-0.49567">
        <ele>16</ele>
        <time>2016-01-20T13:11:14Z</time>
      </trkpt>
      <trkpt lat="44.85249" lon="-0.49571">
        <ele>17</ele>
        <time>2016-01-20T13:11:18Z</time>
      </trkpt>
      <trkpt lat="44.85257" lon="-0.49576">
        <ele>19</ele>
        <time>2016-01-20T13:11:24Z</time>
      </trkpt>
      <trkpt lat="44.85265" lon="-0.49577">
        <ele>15</ele>
        <time>2016-01-20T13:11:31Z</time>
      </trkpt>
      <trkpt lat="44.85273" lon="-0.49579">
        <ele>14</ele>
        <time>2016-01-20T13:11:39Z</time>
      </trkpt>
      <trkpt lat="44.85281" lon="-0.4958">
        <ele>10</ele>
        <time>2016-01-20T13:11:46Z</time>
      </trkpt>
      <trkpt lat="44.85289" lon="-0.49584">
        <ele>5</ele>
        <time>2016-01-20T13:11:53Z</time>
      </trkpt>
      <trkpt lat="44.85297" lon="-0.49588">
        <ele>58.8</ele>
        <time>2016-01-20T13:12:00Z</time>
      </trkpt>
      <trkpt lat="44.85306" lon="-0.49589">
        <ele>-1</ele>
        <time>2016-01-20T13:12:06Z</time>
      </trkpt>
      <trkpt lat="44.85314" lon="-0.49591">
        <ele>-3</ele>
        <time>2016-01-20T13:12:12Z</time>
      </trkpt>
      <trkpt lat="44.85322" lon="-0.4959">
        <ele>-1</ele>
        <time>2016-01-20T13:12:16Z</time>
      </trkpt>
      <trkpt lat="44.8533" lon="-0.49591">
        <ele>4</ele>
        <time>2016-01-20T13:12:21Z</time>
      </trkpt>
      <trkpt lat="44.85337" lon="-0.49593">
        <ele>5</ele>
        <time>2016-01-20T13:12:26Z</time>
      </trkpt>
      <trkpt lat="44.85345" lon="-0.49596">
        <ele>5</ele>
        <time>2016-01-20T13:12:31Z</time>
      </trkpt>
      <trkpt lat="44.85353" lon="-0.49597">
        <ele>4</ele>
        <time>2016-01-20T13:12:39Z</time>
      </trkpt>
      <trkpt lat="44.85361" lon="-0.49599">
        <ele>57.6</ele>
        <time>2016-01-20T13:12:47Z</time>
      </trkpt>
      <trkpt lat="44.8537" lon="-0.49602">
        <ele>57.4</ele>
        <time>2016-01-20T13:12:54Z</time>
      </trkpt>
      <trkpt lat="44.85378" lon="-0.49604">
        <ele>57.1</ele>
        <time>2016-01-20T13:13:00Z</time>
      </trkpt>
      <trkpt lat="44.85387" lon="-0.49604">
        <ele>1</ele>
        <time>2016-01-20T13:13:06Z</time>
      </trkpt>
      <trkpt lat="44.85396" lon="-0.49604">
        <ele>3</ele>
        <time>2016-01-20T13:13:12Z</time>
      </trkpt>
      <trkpt lat="44.85403" lon="-0.49605">
        <ele>2</ele>
        <time>2016-01-20T13:13:17Z</time>
      </trkpt>
      <trkpt lat="44.85411" lon="-0.49607">
        <ele>1</ele>
        <time>2016-01-20T13:13:23Z</time>
      </trkpt>
      <trkpt lat="44.8542" lon="-0.49608">
        <ele>1</ele>
        <time>2016-01-20T13:13:29Z</time>
      </trkpt>
      <trkpt lat="44.85427" lon="-0.4961">
        <ele>56</ele>
        <time>2016-01-20T13:13:36Z</time>
      </trkpt>
      <trkpt lat="44.85436" lon="-0.49611">
        <ele>56</ele>
        <time>2016-01-20T13:13:43Z</time>
      </trkpt>
      <trkpt lat="44.85443" lon="-0.49614">
        <ele>2</ele>
        <time>2016-01-20T13:13:49Z</time>
      </trkpt>
      <trkpt lat="44.8545" lon="-0.49618">
        <ele>2</ele>
        <time>2016-01-20T13:13:54Z</time>
      </trkpt>
      <trkpt lat="44.85459" lon="-0.4962">
        <ele>1</ele>
        <time>2016-01-20T13:14:00Z</time>
      </trkpt>
      <trkpt lat="44.85467" lon="-0.4962">
        <ele>2</ele>
        <time>2016-01-20T13:14:07Z</time>
      </trkpt>
      <trkpt lat="44.85476" lon="-0.49623">
        <ele>-1</ele>
        <time>2016-01-20T13:14:14Z</time>
      </trkpt>
      <trkpt lat="44.85485" lon="-0.49626">
        <ele>-2</ele>
        <time>2016-01-20T13:14:20Z</time>
      </trkpt>
      <trkpt lat="44.85493" lon="-0.49626">
        <ele>-3</ele>
        <time>2016-01-20T13:14:26Z</time>
      </trkpt>
      <trkpt lat="44.855" lon="-0.49628">
        <ele>-2</ele>
        <time>2016-01-20T13:14:31Z</time>
      </trkpt>
      <trkpt lat="44.85509" lon="-0.49629">
        <ele>-1</ele>
        <time>2016-01-20T13:14:37Z</time>
      </trkpt>
      <trkpt lat="44.85518" lon="-0.4963">
        <ele>1</ele>
        <time>2016-01-20T13:14:42Z</time>
      </trkpt>
      <trkpt lat="44.85527" lon="-0.49631">
        <ele>3</ele>
        <time>2016-01-20T13:14:48Z</time>
      </trkpt>
      <trkpt lat="44.85534" lon="-0.49634">
        <ele>5</ele>
        <time>2016-01-20T13:14:54Z</time>
      </trkpt>
      <trkpt lat="44.85542" lon="-0.49638">
        <ele>5</ele>
        <time>2016-01-20T13:15:00Z</time>
      </trkpt>
      <trkpt lat="44.85551" lon="-0.49639">
        <ele>2</ele>
        <time>2016-01-20T13:15:08Z</time>
      </trkpt>
      <trkpt lat="44.85559" lon="-0.49639">
        <ele>4</ele>
        <time>2016-01-20T13:15:13Z</time>
      </trkpt>
      <trkpt lat="44.85565" lon="-0.49647">
        <ele>7</ele>
        <time>2016-01-20T13:15:21Z</time>
      </trkpt>
      <trkpt lat="44.85566" lon="-0.49659">
        <ele>3</ele>
        <time>2016-01-20T13:15:29Z</time>
      </trkpt>
      <trkpt lat="44.85563" lon="-0.4967">
        <ele>1</ele>
        <time>2016-01-20T13:15:36Z</time>
      </trkpt>
      <trkpt lat="44.85563" lon="-0.49682">
        <ele>1</ele>
        <time>2016-01-20T13:15:43Z</time>
      </trkpt>
      <trkpt lat="44.85561" lon="-0.49693">
        <ele>54.8</ele>
        <time>2016-01-20T13:15:51Z</time>
      </trkpt>
      <trkpt lat="44.85559" lon="-0.49704">
        <ele>55.2</ele>
        <time>2016-01-20T13:15:57Z</time>
      </trkpt>
      <trkpt lat="44.85556" lon="-0.49716">
        <ele>55.7</ele>
        <time>2016-01-20T13:16:06Z</time>
      </trkpt>
      <trkpt lat="44.85553" lon="-0.49726">
        <ele>-1</ele>
        <time>2016-01-20T13:16:12Z</time>
      </trkpt>
      <trkpt lat="44.85551" lon="-0.49736">
        <ele>56.3</ele>
        <time>2016-01-20T13:16:17Z</time>
      </trkpt>
      <trkpt lat="44.85548" lon="-0.49748">
        <ele>56.6</ele>
        <time>2016-01-20T13:16:23Z</time>
      </trkpt>
      <trkpt lat="44.85544" lon="-0.49759">
        <ele>-1</ele>
        <time>2016-01-20T13:16:30Z</time>
      </trkpt>
      <trkpt lat="44.85541" lon="-0.49771">
        <ele>-3</ele>
        <time>2016-01-20T13:16:37Z</time>
      </trkpt>
      <trkpt lat="44.85537" lon="-0.49781">
        <ele>-2</ele>
        <time>2016-01-20T13:16:43Z</time>
      </trkpt>
      <trkpt lat="44.85533" lon="-0.49791">
        <ele>-1</ele>
        <time>2016-01-20T13:16:49Z</time>
      </trkpt>
      <trkpt lat="44.85529" lon="-0.49801">
        <ele>58.8</ele>
        <time>2016-01-20T13:16:55Z</time>
      </trkpt>
      <trkpt lat="44.85525" lon="-0.49811">
        <ele>59.1</ele>
        <time>2016-01-20T13:17:01Z</time>
      </trkpt>
      <trkpt lat="44.8552" lon="-0.4982">
        <ele>1</ele>
        <time>2016-01-20T13:17:07Z</time>
      </trkpt>
      <trkpt lat="44.85515" lon="-0.49829">
        <ele>2</ele>
        <time>2016-01-20T13:17:14Z</time>
      </trkpt>
      <trkpt lat="44.85509" lon="-0.49838">
        <ele>1</ele>
        <time>2016-01-20T13:17:21Z</time>
      </trkpt>
      <trkpt lat="44.85504" lon="-0.49847">
        <ele>1</ele>
        <time>2016-01-20T13:17:27Z</time>
      </trkpt>
      <trkpt lat="44.855" lon="-0.49857">
        <ele>2</ele>
        <time>2016-01-20T13:17:33Z</time>
      </trkpt>
      <trkpt lat="44.85494" lon="-0.49866">
        <ele>2</ele>
        <time>2016-01-20T13:17:41Z</time>
      </trkpt>
      <trkpt lat="44.85487" lon="-0.49872">
        <ele>2</ele>
        <time>2016-01-20T13:17:49Z</time>
      </trkpt>
      <trkpt lat="44.85479" lon="-0.49875">
        <ele>4</ele>
        <time>2016-01-20T13:17:56Z</time>
      </trkpt>
      <trkpt lat="44.85471" lon="-0.49874">
        <ele>4</ele>
        <time>2016-01-20T13:18:02Z</time>
      </trkpt>
      <trkpt lat="44.85464" lon="-0.49871">
        <ele>6</ele>
        <time>2016-01-20T13:18:07Z</time>
      </trkpt>
      <trkpt lat="44.85457" lon="-0.49875">
        <ele>6</ele>
        <time>2016-01-20T13:18:13Z</time>
      </trkpt>
      <trkpt lat="44.85451" lon="-0.49885">
        <ele>7</ele>
        <time>2016-01-20T13:18:19Z</time>
      </trkpt>
      <trkpt lat="44.85443" lon="-0.49887">
        <ele>7</ele>
        <time>2016-01-20T13:18:26Z</time>
      </trkpt>
      <trkpt lat="44.85435" lon="-0.49884">
        <ele>7</ele>
        <time>2016-01-20T13:18:32Z</time>
      </trkpt>
      <trkpt lat="44.85427" lon="-0.49881">
        <ele>8</ele>
        <time>2016-01-20T13:18:39Z</time>
      </trkpt>
      <trkpt lat="44.85419" lon="-0.4988">
        <ele>8</ele>
        <time>2016-01-20T13:18:45Z</time>
      </trkpt>
      <trkpt lat="44.85411" lon="-0.49879">
        <ele>10</ele>
        <time>2016-01-20T13:18:51Z</time>
      </trkpt>
      <trkpt lat="44.85402" lon="-0.49878">
        <ele>14</ele>
        <time>2016-01-20T13:18:57Z</time>
      </trkpt>
      <trkpt lat="44.85394" lon="-0.49875">
        <ele>15</ele>
        <time>2016-01-20T13:19:04Z</time>
      </trkpt>
      <trkpt lat="44.85385" lon="-0.49874">
        <ele>15</ele>
        <time>2016-01-20T13:19:13Z</time>
      </trkpt>
      <trkpt lat="44.85377" lon="-0.49873">
        <ele>12</ele>
        <time>2016-01-20T13:19:20Z</time>
      </trkpt>
      <trkpt lat="44.85368" lon="-0.49872">
        <ele>11</ele>
        <time>2016-01-20T13:19:27Z</time>
      </trkpt>
      <trkpt lat="44.8536" lon="-0.4987">
        <ele>9</ele>
        <time>2016-01-20T13:19:33Z</time>
      </trkpt>
      <trkpt lat="44.85352" lon="-0.49867">
        <ele>8</ele>
        <time>2016-01-20T13:19:38Z</time>
      </trkpt>
      <trkpt lat="44.85344" lon="-0.49863">
        <ele>7</ele>
        <time>2016-01-20T13:19:47Z</time>
      </trkpt>
      <trkpt lat="44.85336" lon="-0.49862">
        <ele>8</ele>
        <time>2016-01-20T13:19:53Z</time>
      </trkpt>
      <trkpt lat="44.85328" lon="-0.49862">
        <ele>7</ele>
        <time>2016-01-20T13:20:00Z</time>
      </trkpt>
      <trkpt lat="44.8532" lon="-0.49864">
        <ele>6</ele>
        <time>2016-01-20T13:20:07Z</time>
      </trkpt>
      <trkpt lat="44.85311" lon="-0.49859">
        <ele>6</ele>
        <time>2016-01-20T13:20:12Z</time>
      </trkpt>
      <trkpt lat="44.85303" lon="-0.4986">
        <ele>6</ele>
        <time>2016-01-20T13:20:19Z</time>
      </trkpt>
      <trkpt lat="44.85294" lon="-0.49858">
        <ele>7</ele>
        <time>2016-01-20T13:20:27Z</time>
      </trkpt>
      <trkpt lat="44.85285" lon="-0.49857">
        <ele>7</ele>
        <time>2016-01-20T13:20:34Z</time>
      </trkpt>
      <trkpt lat="44.85277" lon="-0.49855">
        <ele>7</ele>
        <time>2016-01-20T13:20:40Z</time>
      </trkpt>
      <trkpt lat="44.85269" lon="-0.49854">
        <ele>9</ele>
        <time>2016-01-20T13:20:46Z</time>
      </trkpt>
      <trkpt lat="44.85261" lon="-0.49853">
        <ele>11</ele>
        <time>2016-01-20T13:20:52Z</time>
      </trkpt>
      <trkpt lat="44.85252" lon="-0.49853">
        <ele>13</ele>
        <time>2016-01-20T13:20:58Z</time>
      </trkpt>
      <trkpt lat="44.85243" lon="-0.49852">
        <ele>14</ele>
        <time>2016-01-20T13:21:04Z</time>
      </trkpt>
      <trkpt lat="44.85235" lon="-0.49852">
        <ele>14</ele>
        <time>2016-01-20T13:21:11Z</time>
      </trkpt>
      <trkpt lat="44.85228" lon="-0.49851">
        <ele>14</ele>
        <time>2016-01-20T13:21:17Z</time>
      </trkpt>
      <trkpt lat="44.8522" lon="-0.4985">
        <ele>14</ele>
        <time>2016-01-20T13:21:24Z</time>
      </trkpt>
      <trkpt lat="44.85212" lon="-0.49848">
        <ele>12</ele>
        <time>2016-01-20T13:21:30Z</time>
      </trkpt>
      <trkpt lat="44.85204" lon="-0.49845">
        <ele>11</ele>
        <time>2016-01-20T13:21:36Z</time>
      </trkpt>
      <trkpt lat="44.85196" lon="-0.49844">
        <ele>11</ele>
        <time>2016-01-20T13:21:43Z</time>
      </trkpt>
      <trkpt lat="44.85188" lon="-0.49844">
        <ele>10</ele>
        <time>2016-01-20T13:21:52Z</time>
      </trkpt>
      <trkpt lat="44.85179" lon="-0.49841">
        <ele>9</ele>
        <time>2016-01-20T13:21:59Z</time>
      </trkpt>
      <trkpt lat="44.85171" lon="-0.49837">
        <ele>9</ele>
        <time>2016-01-20T13:22:04Z</time>
      </trkpt>
      <trkpt lat="44.85163" lon="-0.49836">
        <ele>8</ele>
        <time>2016-01-20T13:22:09Z</time>
      </trkpt>
      <trkpt lat="44.85155" lon="-0.49832">
        <ele>8</ele>
        <time>2016-01-20T13:22:14Z</time>
      </trkpt>
      <trkpt lat="44.85147" lon="-0.49826">
        <ele>11</ele>
        <time>2016-01-20T13:22:19Z</time>
      </trkpt>
      <trkpt lat="44.85139" lon="-0.49823">
        <ele>13</ele>
        <time>2016-01-20T13:22:26Z</time>
      </trkpt>
      <trkpt lat="44.85132" lon="-0.4982">
        <ele>17</ele>
        <time>2016-01-20T13:22:31Z</time>
      </trkpt>
      <trkpt lat="44.85125" lon="-0.49814">
        <ele>24</ele>
        <time>2016-01-20T13:22:37Z</time>
      </trkpt>
      <trkpt lat="44.85116" lon="-0.49812">
        <ele>29</ele>
        <time>2016-01-20T13:22:44Z</time>
      </trkpt>
      <trkpt lat="44.85108" lon="-0.49811">
        <ele>29</ele>
        <time>2016-01-20T13:22:51Z</time>
      </trkpt>
      <trkpt lat="44.85099" lon="-0.49811">
        <ele>27</ele>
        <time>2016-01-20T13:22:58Z</time>
      </trkpt>
      <trkpt lat="44.85092" lon="-0.49807">
        <ele>29</ele>
        <time>2016-01-20T13:23:04Z</time>
      </trkpt>
      <trkpt lat="44.85083" lon="-0.49803">
        <ele>28</ele>
        <time>2016-01-20T13:23:10Z</time>
      </trkpt>
      <trkpt lat="44.85076" lon="-0.49799">
        <ele>25</ele>
        <time>2016-01-20T13:23:16Z</time>
      </trkpt>
      <trkpt lat="44.85069" lon="-0.49793">
        <ele>24</ele>
        <time>2016-01-20T13:23:21Z</time>
      </trkpt>
      <trkpt lat="44.85061" lon="-0.4979">
        <ele>21</ele>
        <time>2016-01-20T13:23:28Z</time>
      </trkpt>
      <trkpt lat="44.85054" lon="-0.49783">
        <ele>21</ele>
        <time>2016-01-20T13:23:33Z</time>
      </trkpt>
      <trkpt lat="44.85047" lon="-0.49777">
        <ele>17</ele>
        <time>2016-01-20T13:23:39Z</time>
      </trkpt>
      <trkpt lat="44.8504" lon="-0.49773">
        <ele>17</ele>
        <time>2016-01-20T13:23:46Z</time>
      </trkpt>
      <trkpt lat="44.85032" lon="-0.49768">
        <ele>18</ele>
        <time>2016-01-20T13:23:52Z</time>
      </trkpt>
      <trkpt lat="44.85024" lon="-0.49763">
        <ele>20</ele>
        <time>2016-01-20T13:23:58Z</time>
      </trkpt>
      <trkpt lat="44.85017" lon="-0.49759">
        <ele>22</ele>
        <time>2016-01-20T13:24:04Z</time>
      </trkpt>
      <trkpt lat="44.85008" lon="-0.49756">
        <ele>21</ele>
        <time>2016-01-20T13:24:10Z</time>
      </trkpt>
      <trkpt lat="44.85" lon="-0.49753">
        <ele>22</ele>
        <time>2016-01-20T13:24:16Z</time>
      </trkpt>
      <trkpt lat="44.84992" lon="-0.49748">
        <ele>21</ele>
        <time>2016-01-20T13:24:24Z</time>
      </trkpt>
      <trkpt lat="44.84985" lon="-0.49743">
        <ele>22</ele>
        <time>2016-01-20T13:24:32Z</time>
      </trkpt>
      <trkpt lat="44.84977" lon="-0.49739">
        <ele>25</ele>
        <time>2016-01-20T13:24:39Z</time>
      </trkpt>
      <trkpt lat="44.84969" lon="-0.49736">
        <ele>27</ele>
        <time>2016-01-20T13:24:45Z</time>
      </trkpt>
      <trkpt lat="44.84961" lon="-0.49732">
        <ele>27</ele>
        <time>2016-01-20T13:24:52Z</time>
      </trkpt>
      <trkpt lat="44.84953" lon="-0.49728">
        <ele>26</ele>
        <time>2016-01-20T13:24:59Z</time>
      </trkpt>
      <trkpt lat="44.84944" lon="-0.49729">
        <ele>26</ele>
        <time>2016-01-20T13:25:05Z</time>
      </trkpt>
      <trkpt lat="44.84937" lon="-0.49731">
        <ele>23</ele>
        <time>2016-01-20T13:25:10Z</time>
      </trkpt>
      <trkpt lat="44.8493" lon="-0.49736">
        <ele>23</ele>
        <time>2016-01-20T13:25:15Z</time>
      </trkpt>
      <trkpt lat="44.84925" lon="-0.49745">
        <ele>24</ele>
        <time>2016-01-20T13:25:20Z</time>
      </trkpt>
      <trkpt lat="44.84921" lon="-0.49756">
        <ele>26</ele>
        <time>2016-01-20T13:25:26Z</time>
      </trkpt>
      <trkpt lat="44.84917" lon="-0.49767">
        <ele>25</ele>
        <time>2016-01-20T13:25:32Z</time>
      </trkpt>
      <trkpt lat="44.84912" lon="-0.49776">
        <ele>26</ele>
        <time>2016-01-20T13:25:37Z</time>
      </trkpt>
      <trkpt lat="44.84909" lon="-0.49787">
        <ele>26</ele>
        <time>2016-01-20T13:25:43Z</time>
      </trkpt>
      <trkpt lat="44.84906" lon="-0.49797">
        <ele>27</ele>
        <time>2016-01-20T13:25:49Z</time>
      </trkpt>
      <trkpt lat="44.84903" lon="-0.49807">
        <ele>26</ele>
        <time>2016-01-20T13:25:55Z</time>
      </trkpt>
      <trkpt lat="44.84899" lon="-0.49817">
        <ele>25</ele>
        <time>2016-01-20T13:26:01Z</time>
      </trkpt>
      <trkpt lat="44.84895" lon="-0.49828">
        <ele>25</ele>
        <time>2016-01-20T13:26:07Z</time>
      </trkpt>
      <trkpt lat="44.84892" lon="-0.49838">
        <ele>26</ele>
        <time>2016-01-20T13:26:13Z</time>
      </trkpt>
      <trkpt lat="44.84889" lon="-0.49849">
        <ele>27</ele>
        <time>2016-01-20T13:26:19Z</time>
      </trkpt>
      <trkpt lat="44.84885" lon="-0.4986">
        <ele>27</ele>
        <time>2016-01-20T13:26:26Z</time>
      </trkpt>
      <trkpt lat="44.84881" lon="-0.4987">
        <ele>27</ele>
        <time>2016-01-20T13:26:32Z</time>
      </trkpt>
      <trkpt lat="44.84877" lon="-0.4988">
        <ele>27</ele>
        <time>2016-01-20T13:26:38Z</time>
      </trkpt>
      <trkpt lat="44.84874" lon="-0.4989">
        <ele>28</ele>
        <time>2016-01-20T13:26:44Z</time>
      </trkpt>
      <trkpt lat="44.8487" lon="-0.499">
        <ele>27</ele>
        <time>2016-01-20T13:26:50Z</time>
      </trkpt>
      <trkpt lat="44.84867" lon="-0.49911">
        <ele>27</ele>
        <time>2016-01-20T13:26:56Z</time>
      </trkpt>
      <trkpt lat="44.84865" lon="-0.49922">
        <ele>27</ele>
        <time>2016-01-20T13:27:02Z</time>
      </trkpt>
      <trkpt lat="44.84862" lon="-0.49933">
        <ele>26</ele>
        <time>2016-01-20T13:27:09Z</time>
      </trkpt>
      <trkpt lat="44.84859" lon="-0.49944">
        <ele>26</ele>
        <time>2016-01-20T13:27:15Z</time>
      </trkpt>
      <trkpt lat="44.84857" lon="-0.49955">
        <ele>26</ele>
        <time>2016-01-20T13:27:21Z</time>
      </trkpt>
      <trkpt lat="44.84856" lon="-0.49967">
        <ele>24</ele>
        <time>2016-01-20T13:27:27Z</time>
      </trkpt>
      <trkpt lat="44.84855" lon="-0.49978">
        <ele>25</ele>
        <time>2016-01-20T13:27:32Z</time>
      </trkpt>
      <trkpt lat="44.84858" lon="-0.49989">
        <ele>24</ele>
        <time>2016-01-20T13:27:40Z</time>
      </trkpt>
      <trkpt lat="44.8485" lon="-0.49993">
        <ele>21</ele>
        <time>2016-01-20T13:28:43Z</time>
      </trkpt>
      <trkpt lat="44.84848" lon="-0.50006">
        <ele>22</ele>
        <time>2016-01-20T13:28:52Z</time>
      </trkpt>
      <trkpt lat="44.84846" lon="-0.50017">
        <ele>22</ele>
        <time>2016-01-20T13:29:00Z</time>
      </trkpt>
      <trkpt lat="44.84843" lon="-0.50027">
        <ele>21</ele>
        <time>2016-01-20T13:29:06Z</time>
      </trkpt>
      <trkpt lat="44.8484" lon="-0.50037">
        <ele>21</ele>
        <time>2016-01-20T13:29:12Z</time>
      </trkpt>
      <trkpt lat="44.84838" lon="-0.50048">
        <ele>22</ele>
        <time>2016-01-20T13:29:18Z</time>
      </trkpt>
      <trkpt lat="44.84834" lon="-0.50059">
        <ele>22</ele>
        <time>2016-01-20T13:29:24Z</time>
      </trkpt>
      <trkpt lat="44.84832" lon="-0.50071">
        <ele>22</ele>
        <time>2016-01-20T13:29:30Z</time>
      </trkpt>
      <trkpt lat="44.84832" lon="-0.50082">
        <ele>20</ele>
        <time>2016-01-20T13:29:37Z</time>
      </trkpt>
      <trkpt lat="44.8483" lon="-0.50094">
        <ele>16</ele>
        <time>2016-01-20T13:29:44Z</time>
      </trkpt>
      <trkpt lat="44.84829" lon="-0.50105">
        <ele>16</ele>
        <time>2016-01-20T13:29:51Z</time>
      </trkpt>
      <trkpt lat="44.8483" lon="-0.50116">
        <ele>19</ele>
        <time>2016-01-20T13:29:56Z</time>
      </trkpt>
      <trkpt lat="44.84828" lon="-0.50127">
        <ele>22</ele>
        <time>2016-01-20T13:30:01Z</time>
      </trkpt>
      <trkpt lat="44.84829" lon="-0.50138">
        <ele>21</ele>
        <time>2016-01-20T13:30:06Z</time>
      </trkpt>
      <trkpt lat="44.84827" lon="-0.5015">
        <ele>18</ele>
        <time>2016-01-20T13:30:12Z</time>
      </trkpt>
      <trkpt lat="44.84826" lon="-0.50161">
        <ele>16</ele>
        <time>2016-01-20T13:30:18Z</time>
      </trkpt>
      <trkpt lat="44.84823" lon="-0.50173">
        <ele>16</ele>
        <time>2016-01-20T13:30:24Z</time>
      </trkpt>
      <trkpt lat="44.84819" lon="-0.50184">
        <ele>17</ele>
        <time>2016-01-20T13:30:31Z</time>
      </trkpt>
      <trkpt lat="44.84818" lon="-0.50195">
        <ele>19</ele>
        <time>2016-01-20T13:30:37Z</time>
      </trkpt>
      <trkpt lat="44.84817" lon="-0.50207">
        <ele>18</ele>
        <time>2016-01-20T13:30:44Z</time>
      </trkpt>
      <trkpt lat="44.84816" lon="-0.50217">
        <ele>18</ele>
        <time>2016-01-20T13:30:51Z</time>
      </trkpt>
      <trkpt lat="44.84815" lon="-0.5023">
        <ele>17</ele>
        <time>2016-01-20T13:30:57Z</time>
      </trkpt>
      <trkpt lat="44.84815" lon="-0.50242">
        <ele>17</ele>
        <time>2016-01-20T13:31:04Z</time>
      </trkpt>
      <trkpt lat="44.84814" lon="-0.50253">
        <ele>16</ele>
        <time>2016-01-20T13:31:10Z</time>
      </trkpt>
      <trkpt lat="44.84811" lon="-0.50264">
        <ele>16</ele>
        <time>2016-01-20T13:31:16Z</time>
      </trkpt>
      <trkpt lat="44.84811" lon="-0.50276">
        <ele>15</ele>
        <time>2016-01-20T13:31:22Z</time>
      </trkpt>
      <trkpt lat="44.8481" lon="-0.50288">
        <ele>14</ele>
        <time>2016-01-20T13:31:29Z</time>
      </trkpt>
      <trkpt lat="44.84809" lon="-0.50299">
        <ele>16</ele>
        <time>2016-01-20T13:31:34Z</time>
      </trkpt>
      <trkpt lat="44.84808" lon="-0.5031">
        <ele>18</ele>
        <time>2016-01-20T13:31:39Z</time>
      </trkpt>
      <trkpt lat="44.84807" lon="-0.50321">
        <ele>15</ele>
        <time>2016-01-20T13:31:45Z</time>
      </trkpt>
      <trkpt lat="44.84806" lon="-0.50333">
        <ele>15</ele>
        <time>2016-01-20T13:31:51Z</time>
      </trkpt>
      <trkpt lat="44.84805" lon="-0.50345">
        <ele>14</ele>
        <time>2016-01-20T13:31:57Z</time>
      </trkpt>
      <trkpt lat="44.84804" lon="-0.50356">
        <ele>11</ele>
        <time>2016-01-20T13:32:03Z</time>
      </trkpt>
      <trkpt lat="44.84803" lon="-0.50368">
        <ele>12</ele>
        <time>2016-01-20T13:32:09Z</time>
      </trkpt>
      <trkpt lat="44.84803" lon="-0.50381">
        <ele>13</ele>
        <time>2016-01-20T13:32:15Z</time>
      </trkpt>
      <trkpt lat="44.84802" lon="-0.50393">
        <ele>14</ele>
        <time>2016-01-20T13:32:22Z</time>
      </trkpt>
      <trkpt lat="44.84802" lon="-0.50405">
        <ele>13</ele>
        <time>2016-01-20T13:32:28Z</time>
      </trkpt>
      <trkpt lat="44.84802" lon="-0.50417">
        <ele>14</ele>
        <time>2016-01-20T13:32:34Z</time>
      </trkpt>
      <trkpt lat="44.84802" lon="-0.50428">
        <ele>15</ele>
        <time>2016-01-20T13:32:40Z</time>
      </trkpt>
      <trkpt lat="44.84802" lon="-0.5044">
        <ele>13</ele>
        <time>2016-01-20T13:32:46Z</time>
      </trkpt>
      <trkpt lat="44.84801" lon="-0.50451">
        <ele>13</ele>
        <time>2016-01-20T13:32:52Z</time>
      </trkpt>
      <trkpt lat="44.848" lon="-0.50463">
        <ele>15</ele>
        <time>2016-01-20T13:32:59Z</time>
      </trkpt>
      <trkpt lat="44.84799" lon="-0.50475">
        <ele>15</ele>
        <time>2016-01-20T13:33:05Z</time>
      </trkpt>
      <trkpt lat="44.84798" lon="-0.50486">
        <ele>16</ele>
        <time>2016-01-20T13:33:11Z</time>
      </trkpt>
      <trkpt lat="44.84798" lon="-0.50498">
        <ele>17</ele>
        <time>2016-01-20T13:33:19Z</time>
      </trkpt>
      <trkpt lat="44.84796" lon="-0.5051">
        <ele>15</ele>
        <time>2016-01-20T13:33:26Z</time>
      </trkpt>
      <trkpt lat="44.84793" lon="-0.50522">
        <ele>15</ele>
        <time>2016-01-20T13:33:33Z</time>
      </trkpt>
      <trkpt lat="44.84791" lon="-0.50533">
        <ele>14</ele>
        <time>2016-01-20T13:33:39Z</time>
      </trkpt>
      <trkpt lat="44.84789" lon="-0.50544">
        <ele>15</ele>
        <time>2016-01-20T13:33:45Z</time>
      </trkpt>
      <trkpt lat="44.84788" lon="-0.50556">
        <ele>14</ele>
        <time>2016-01-20T13:33:52Z</time>
      </trkpt>
      <trkpt lat="44.84786" lon="-0.50566">
        <ele>14</ele>
        <time>2016-01-20T13:33:58Z</time>
      </trkpt>
      <trkpt lat="44.84783" lon="-0.50577">
        <ele>14</ele>
        <time>2016-01-20T13:34:03Z</time>
      </trkpt>
      <trkpt lat="44.84783" lon="-0.50588">
        <ele>14</ele>
        <time>2016-01-20T13:34:09Z</time>
      </trkpt>
      <trkpt lat="44.84781" lon="-0.506">
        <ele>17</ele>
        <time>2016-01-20T13:34:15Z</time>
      </trkpt>
      <trkpt lat="44.84779" lon="-0.50612">
        <ele>15</ele>
        <time>2016-01-20T13:34:22Z</time>
      </trkpt>
      <trkpt lat="44.84775" lon="-0.50622">
        <ele>15</ele>
        <time>2016-01-20T13:34:28Z</time>
      </trkpt>
      <trkpt lat="44.84774" lon="-0.50633">
        <ele>14</ele>
        <time>2016-01-20T13:34:34Z</time>
      </trkpt>
      <trkpt lat="44.84773" lon="-0.50645">
        <ele>13</ele>
        <time>2016-01-20T13:34:41Z</time>
      </trkpt>
      <trkpt lat="44.84767" lon="-0.50653">
        <ele>15</ele>
        <time>2016-01-20T13:34:47Z</time>
      </trkpt>
      <trkpt lat="44.8476" lon="-0.5066">
        <ele>19</ele>
        <time>2016-01-20T13:34:53Z</time>
      </trkpt>
      <trkpt lat="44.84757" lon="-0.50671">
        <ele>19</ele>
        <time>2016-01-20T13:35:00Z</time>
      </trkpt>
      <trkpt lat="44.84755" lon="-0.50682">
        <ele>20</ele>
        <time>2016-01-20T13:35:06Z</time>
      </trkpt>
      <trkpt lat="44.84754" lon="-0.50694">
        <ele>18</ele>
        <time>2016-01-20T13:35:13Z</time>
      </trkpt>
      <trkpt lat="44.84753" lon="-0.50706">
        <ele>14</ele>
        <time>2016-01-20T13:35:20Z</time>
      </trkpt>
      <trkpt lat="44.84753" lon="-0.50718">
        <ele>16</ele>
        <time>2016-01-20T13:35:26Z</time>
      </trkpt>
      <trkpt lat="44.84752" lon="-0.50729">
        <ele>15</ele>
        <time>2016-01-20T13:35:32Z</time>
      </trkpt>
      <trkpt lat="44.84748" lon="-0.5074">
        <ele>14</ele>
        <time>2016-01-20T13:35:38Z</time>
      </trkpt>
      <trkpt lat="44.84745" lon="-0.50751">
        <ele>13</ele>
        <time>2016-01-20T13:35:44Z</time>
      </trkpt>
      <trkpt lat="44.84742" lon="-0.50762">
        <ele>13</ele>
        <time>2016-01-20T13:35:51Z</time>
      </trkpt>
      <trkpt lat="44.84744" lon="-0.50773">
        <ele>13</ele>
        <time>2016-01-20T13:35:57Z</time>
      </trkpt>
      <trkpt lat="44.84744" lon="-0.50784">
        <ele>13</ele>
        <time>2016-01-20T13:36:03Z</time>
      </trkpt>
      <trkpt lat="44.84745" lon="-0.50795">
        <ele>14</ele>
        <time>2016-01-20T13:36:08Z</time>
      </trkpt>
      <trkpt lat="44.84745" lon="-0.50807">
        <ele>15</ele>
        <time>2016-01-20T13:36:14Z</time>
      </trkpt>
      <trkpt lat="44.84743" lon="-0.50818">
        <ele>16</ele>
        <time>2016-01-20T13:36:21Z</time>
      </trkpt>
      <trkpt lat="44.84741" lon="-0.50829">
        <ele>19</ele>
        <time>2016-01-20T13:36:26Z</time>
      </trkpt>
      <trkpt lat="44.84737" lon="-0.5084">
        <ele>20</ele>
        <time>2016-01-20T13:36:32Z</time>
      </trkpt>
      <trkpt lat="44.84736" lon="-0.50852">
        <ele>23</ele>
        <time>2016-01-20T13:36:38Z</time>
      </trkpt>
      <trkpt lat="44.8473" lon="-0.50861">
        <ele>22</ele>
        <time>2016-01-20T13:36:45Z</time>
      </trkpt>
      <trkpt lat="44.84721" lon="-0.50863">
        <ele>22</ele>
        <time>2016-01-20T13:36:53Z</time>
      </trkpt>
      <trkpt lat="44.84722" lon="-0.50875">
        <ele>24</ele>
        <time>2016-01-20T13:37:06Z</time>
      </trkpt>
      <trkpt lat="44.84723" lon="-0.50886">
        <ele>21</ele>
        <time>2016-01-20T13:37:13Z</time>
      </trkpt>
      <trkpt lat="44.84721" lon="-0.50898">
        <ele>19</ele>
        <time>2016-01-20T13:37:19Z</time>
      </trkpt>
      <trkpt lat="44.84718" lon="-0.5091">
        <ele>19</ele>
        <time>2016-01-20T13:37:26Z</time>
      </trkpt>
      <trkpt lat="44.84718" lon="-0.50921">
        <ele>17</ele>
        <time>2016-01-20T13:37:34Z</time>
      </trkpt>
      <trkpt lat="44.84718" lon="-0.50933">
        <ele>15</ele>
        <time>2016-01-20T13:37:40Z</time>
      </trkpt>
      <trkpt lat="44.84718" lon="-0.50944">
        <ele>17</ele>
        <time>2016-01-20T13:37:45Z</time>
      </trkpt>
      <trkpt lat="44.84715" lon="-0.50956">
        <ele>19</ele>
        <time>2016-01-20T13:37:50Z</time>
      </trkpt>
      <trkpt lat="44.84713" lon="-0.50967">
        <ele>20</ele>
        <time>2016-01-20T13:37:56Z</time>
      </trkpt>
      <trkpt lat="44.8471" lon="-0.50979">
        <ele>25</ele>
        <time>2016-01-20T13:38:04Z</time>
      </trkpt>
      <trkpt lat="44.84707" lon="-0.5099">
        <ele>22</ele>
        <time>2016-01-20T13:38:12Z</time>
      </trkpt>
      <trkpt lat="44.84706" lon="-0.51001">
        <ele>18</ele>
        <time>2016-01-20T13:38:19Z</time>
      </trkpt>
      <trkpt lat="44.84704" lon="-0.51013">
        <ele>15</ele>
        <time>2016-01-20T13:38:27Z</time>
      </trkpt>
      <trkpt lat="44.84701" lon="-0.51025">
        <ele>13</ele>
        <time>2016-01-20T13:38:37Z</time>
      </trkpt>
      <trkpt lat="44.84704" lon="-0.51037">
        <ele>11</ele>
        <time>2016-01-20T13:38:45Z</time>
      </trkpt>
      <trkpt lat="44.84707" lon="-0.51047">
        <ele>10</ele>
        <time>2016-01-20T13:38:51Z</time>
      </trkpt>
      <trkpt lat="44.84706" lon="-0.51058">
        <ele>11</ele>
        <time>2016-01-20T13:38:56Z</time>
      </trkpt>
      <trkpt lat="44.84704" lon="-0.51069">
        <ele>11</ele>
        <time>2016-01-20T13:39:02Z</time>
      </trkpt>
      <trkpt lat="44.84703" lon="-0.51081">
        <ele>11</ele>
        <time>2016-01-20T13:39:09Z</time>
      </trkpt>
      <trkpt lat="44.847" lon="-0.51092">
        <ele>13</ele>
        <time>2016-01-20T13:39:15Z</time>
      </trkpt>
      <trkpt lat="44.84699" lon="-0.51103">
        <ele>15</ele>
        <time>2016-01-20T13:39:21Z</time>
      </trkpt>
      <trkpt lat="44.84698" lon="-0.51114">
        <ele>18</ele>
        <time>2016-01-20T13:39:26Z</time>
      </trkpt>
      <trkpt lat="44.84696" lon="-0.51124">
        <ele>20</ele>
        <time>2016-01-20T13:39:32Z</time>
      </trkpt>
      <trkpt lat="44.84695" lon="-0.51135">
        <ele>21</ele>
        <time>2016-01-20T13:39:38Z</time>
      </trkpt>
      <trkpt lat="44.84697" lon="-0.51148">
        <ele>16</ele>
        <time>2016-01-20T13:39:45Z</time>
      </trkpt>
      <trkpt lat="44.84698" lon="-0.51159">
        <ele>18</ele>
        <time>2016-01-20T13:39:50Z</time>
      </trkpt>
      <trkpt lat="44.84696" lon="-0.51171">
        <ele>21</ele>
        <time>2016-01-20T13:39:56Z</time>
      </trkpt>
      <trkpt lat="44.84693" lon="-0.51182">
        <ele>21</ele>
        <time>2016-01-20T13:40:02Z</time>
      </trkpt>
      <trkpt lat="44.84694" lon="-0.51194">
        <ele>27</ele>
        <time>2016-01-20T13:40:08Z</time>
      </trkpt>
      <trkpt lat="44.84693" lon="-0.51205">
        <ele>28</ele>
        <time>2016-01-20T13:40:17Z</time>
      </trkpt>
      <trkpt lat="44.84694" lon="-0.51217">
        <ele>30</ele>
        <time>2016-01-20T13:40:24Z</time>
      </trkpt>
      <trkpt lat="44.84694" lon="-0.5123">
        <ele>29</ele>
        <time>2016-01-20T13:40:32Z</time>
      </trkpt>
      <trkpt lat="44.84693" lon="-0.51241">
        <ele>28</ele>
        <time>2016-01-20T13:40:38Z</time>
      </trkpt>
      <trkpt lat="44.84696" lon="-0.51253">
        <ele>25</ele>
        <time>2016-01-20T13:40:44Z</time>
      </trkpt>
      <trkpt lat="44.84696" lon="-0.51265">
        <ele>25</ele>
        <time>2016-01-20T13:40:51Z</time>
      </trkpt>
      <trkpt lat="44.84696" lon="-0.51277">
        <ele>25</ele>
        <time>2016-01-20T13:40:57Z</time>
      </trkpt>
      <trkpt lat="44.84696" lon="-0.51288">
        <ele>28</ele>
        <time>2016-01-20T13:41:02Z</time>
      </trkpt>
      <trkpt lat="44.84696" lon="-0.513">
        <ele>28</ele>
        <time>2016-01-20T13:41:10Z</time>
      </trkpt>
      <trkpt lat="44.84696" lon="-0.51311">
        <ele>29</ele>
        <time>2016-01-20T13:41:16Z</time>
      </trkpt>
      <trkpt lat="44.84695" lon="-0.51322">
        <ele>30</ele>
        <time>2016-01-20T13:41:23Z</time>
      </trkpt>
      <trkpt lat="44.84695" lon="-0.51333">
        <ele>31</ele>
        <time>2016-01-20T13:41:29Z</time>
      </trkpt>
      <trkpt lat="44.84699" lon="-0.51344">
        <ele>33</ele>
        <time>2016-01-20T13:41:36Z</time>
      </trkpt>
      <trkpt lat="44.84703" lon="-0.51355">
        <ele>33</ele>
        <time>2016-01-20T13:41:43Z</time>
      </trkpt>
      <trkpt lat="44.84706" lon="-0.51367">
        <ele>31</ele>
        <time>2016-01-20T13:41:50Z</time>
      </trkpt>
      <trkpt lat="44.84708" lon="-0.51377">
        <ele>28</ele>
        <time>2016-01-20T13:41:55Z</time>
      </trkpt>
      <trkpt lat="44.84708" lon="-0.51389">
        <ele>24</ele>
        <time>2016-01-20T13:42:01Z</time>
      </trkpt>
      <trkpt lat="44.84708" lon="-0.514">
        <ele>21</ele>
        <time>2016-01-20T13:42:07Z</time>
      </trkpt>
      <trkpt lat="44.84707" lon="-0.51411">
        <ele>19</ele>
        <time>2016-01-20T13:42:13Z</time>
      </trkpt>
      <trkpt lat="44.84707" lon="-0.51422">
        <ele>17</ele>
        <time>2016-01-20T13:42:18Z</time>
      </trkpt>
      <trkpt lat="44.84707" lon="-0.51434">
        <ele>18</ele>
        <time>2016-01-20T13:42:24Z</time>
      </trkpt>
      <trkpt lat="44.84706" lon="-0.51447">
        <ele>18</ele>
        <time>2016-01-20T13:42:30Z</time>
      </trkpt>
      <trkpt lat="44.84707" lon="-0.51459">
        <ele>18</ele>
        <time>2016-01-20T13:42:36Z</time>
      </trkpt>
      <trkpt lat="44.84707" lon="-0.51471">
        <ele>15</ele>
        <time>2016-01-20T13:42:43Z</time>
      </trkpt>
      <trkpt lat="44.84707" lon="-0.51483">
        <ele>15</ele>
        <time>2016-01-20T13:42:49Z</time>
      </trkpt>
      <trkpt lat="44.84706" lon="-0.51495">
        <ele>12</ele>
        <time>2016-01-20T13:42:56Z</time>
      </trkpt>
      <trkpt lat="44.84705" lon="-0.51506">
        <ele>11</ele>
        <time>2016-01-20T13:43:02Z</time>
      </trkpt>
      <trkpt lat="44.84702" lon="-0.51518">
        <ele>9</ele>
        <time>2016-01-20T13:43:10Z</time>
      </trkpt>
      <trkpt lat="44.84701" lon="-0.5153">
        <ele>8</ele>
        <time>2016-01-20T13:43:18Z</time>
      </trkpt>
      <trkpt lat="44.84701" lon="-0.51542">
        <ele>7</ele>
        <time>2016-01-20T13:43:24Z</time>
      </trkpt>
      <trkpt lat="44.847" lon="-0.51553">
        <ele>9</ele>
        <time>2016-01-20T13:43:30Z</time>
      </trkpt>
      <trkpt lat="44.84698" lon="-0.51565">
        <ele>10</ele>
        <time>2016-01-20T13:43:36Z</time>
      </trkpt>
      <trkpt lat="44.84695" lon="-0.51575">
        <ele>12</ele>
        <time>2016-01-20T13:43:42Z</time>
      </trkpt>
      <trkpt lat="44.84688" lon="-0.51579">
        <ele>11</ele>
        <time>2016-01-20T13:43:50Z</time>
      </trkpt>
      <trkpt lat="44.8468" lon="-0.51583">
        <ele>11</ele>
        <time>2016-01-20T13:43:57Z</time>
      </trkpt>
      <trkpt lat="44.84673" lon="-0.51587">
        <ele>12</ele>
        <time>2016-01-20T13:44:03Z</time>
      </trkpt>
      <trkpt lat="44.84665" lon="-0.51593">
        <ele>15</ele>
        <time>2016-01-20T13:44:08Z</time>
      </trkpt>
      <trkpt lat="44.8466" lon="-0.51601">
        <ele>15</ele>
        <time>2016-01-20T13:44:14Z</time>
      </trkpt>
      <trkpt lat="44.8466" lon="-0.51613">
        <ele>17</ele>
        <time>2016-01-20T13:44:21Z</time>
      </trkpt>
      <trkpt lat="44.84659" lon="-0.51625">
        <ele>16</ele>
        <time>2016-01-20T13:44:30Z</time>
      </trkpt>
      <trkpt lat="44.84653" lon="-0.51631">
        <ele>12</ele>
        <time>2016-01-20T13:44:38Z</time>
      </trkpt>
      <trkpt lat="44.84646" lon="-0.51638">
        <ele>12</ele>
        <time>2016-01-20T13:44:44Z</time>
      </trkpt>
      <trkpt lat="44.8464" lon="-0.51645">
        <ele>13</ele>
        <time>2016-01-20T13:44:50Z</time>
      </trkpt>
      <trkpt lat="44.84638" lon="-0.51656">
        <ele>12</ele>
        <time>2016-01-20T13:44:58Z</time>
      </trkpt>
      <trkpt lat="44.84632" lon="-0.51662">
        <ele>12</ele>
        <time>2016-01-20T13:45:03Z</time>
      </trkpt>
      <trkpt lat="44.84629" lon="-0.51673">
        <ele>15</ele>
        <time>2016-01-20T13:45:10Z</time>
      </trkpt>
      <trkpt lat="44.84633" lon="-0.51684">
        <ele>13</ele>
        <time>2016-01-20T13:45:17Z</time>
      </trkpt>
      <trkpt lat="44.84636" lon="-0.51695">
        <ele>11</ele>
        <time>2016-01-20T13:45:25Z</time>
      </trkpt>
      <trkpt lat="44.8464" lon="-0.51705">
        <ele>14</ele>
        <time>2016-01-20T13:45:32Z</time>
      </trkpt>
      <trkpt lat="44.84633" lon="-0.51712">
        <ele>12</ele>
        <time>2016-01-20T13:45:41Z</time>
      </trkpt>
      <trkpt lat="44.84625" lon="-0.51718">
        <ele>11</ele>
        <time>2016-01-20T13:45:50Z</time>
      </trkpt>
      <trkpt lat="44.84617" lon="-0.51722">
        <ele>12</ele>
        <time>2016-01-20T13:45:58Z</time>
      </trkpt>
      <trkpt lat="44.84608" lon="-0.51723">
        <ele>11</ele>
        <time>2016-01-20T13:46:06Z</time>
      </trkpt>
      <trkpt lat="44.846" lon="-0.51722">
        <ele>10</ele>
        <time>2016-01-20T13:46:13Z</time>
      </trkpt>
      <trkpt lat="44.84591" lon="-0.51724">
        <ele>11</ele>
        <time>2016-01-20T13:46:19Z</time>
      </trkpt>
      <trkpt lat="44.84583" lon="-0.51725">
        <ele>11</ele>
        <time>2016-01-20T13:46:25Z</time>
      </trkpt>
      <trkpt lat="44.84575" lon="-0.51726">
        <ele>11</ele>
        <time>2016-01-20T13:46:31Z</time>
      </trkpt>
      <trkpt lat="44.84568" lon="-0.51728">
        <ele>12</ele>
        <time>2016-01-20T13:46:36Z</time>
      </trkpt>
      <trkpt lat="44.8456" lon="-0.5173">
        <ele>11</ele>
        <time>2016-01-20T13:46:43Z</time>
      </trkpt>
      <trkpt lat="44.84551" lon="-0.5173">
        <ele>10</ele>
        <time>2016-01-20T13:46:49Z</time>
      </trkpt>
      <trkpt lat="44.84542" lon="-0.5173">
        <ele>8</ele>
        <time>2016-01-20T13:46:56Z</time>
      </trkpt>
      <trkpt lat="44.84535" lon="-0.51733">
        <ele>6</ele>
        <time>2016-01-20T13:47:02Z</time>
      </trkpt>
      <trkpt lat="44.84528" lon="-0.51736">
        <ele>7</ele>
        <time>2016-01-20T13:47:07Z</time>
      </trkpt>
      <trkpt lat="44.84519" lon="-0.51738">
        <ele>6</ele>
        <time>2016-01-20T13:47:14Z</time>
      </trkpt>
      <trkpt lat="44.84511" lon="-0.51738">
        <ele>4</ele>
        <time>2016-01-20T13:47:21Z</time>
      </trkpt>
      <trkpt lat="44.84503" lon="-0.51739">
        <ele>3</ele>
        <time>2016-01-20T13:47:27Z</time>
      </trkpt>
      <trkpt lat="44.84495" lon="-0.51742">
        <ele>1</ele>
        <time>2016-01-20T13:47:34Z</time>
      </trkpt>
      <trkpt lat="44.84488" lon="-0.51743">
        <ele>64.6</ele>
        <time>2016-01-20T13:47:39Z</time>
      </trkpt>
      <trkpt lat="44.8448" lon="-0.51748">
        <ele>2</ele>
        <time>2016-01-20T13:47:44Z</time>
      </trkpt>
      <trkpt lat="44.84472" lon="-0.51751">
        <ele>2</ele>
        <time>2016-01-20T13:47:49Z</time>
      </trkpt>
      <trkpt lat="44.84465" lon="-0.51754">
        <ele>64</ele>
        <time>2016-01-20T13:47:55Z</time>
      </trkpt>
      <trkpt lat="44.84456" lon="-0.51755">
        <ele>4</ele>
        <time>2016-01-20T13:47:59Z</time>
      </trkpt>
      <trkpt lat="44.84449" lon="-0.51762">
        <ele>4</ele>
        <time>2016-01-20T13:48:06Z</time>
      </trkpt>
      <trkpt lat="44.84441" lon="-0.51769">
        <ele>5</ele>
        <time>2016-01-20T13:48:13Z</time>
      </trkpt>
      <trkpt lat="44.84433" lon="-0.51771">
        <ele>9</ele>
        <time>2016-01-20T13:48:18Z</time>
      </trkpt>
      <trkpt lat="44.84425" lon="-0.51774">
        <ele>10</ele>
        <time>2016-01-20T13:48:24Z</time>
      </trkpt>
      <trkpt lat="44.84418" lon="-0.51779">
        <ele>8</ele>
        <time>2016-01-20T13:48:30Z</time>
      </trkpt>
      <trkpt lat="44.8441" lon="-0.51782">
        <ele>6</ele>
        <time>2016-01-20T13:48:36Z</time>
      </trkpt>
      <trkpt lat="44.84401" lon="-0.51782">
        <ele>1</ele>
        <time>2016-01-20T13:48:46Z</time>
      </trkpt>
      <trkpt lat="44.84394" lon="-0.51786">
        <ele>4</ele>
        <time>2016-01-20T13:48:54Z</time>
      </trkpt>
      <trkpt lat="44.84385" lon="-0.51783">
        <ele>-1</ele>
        <time>2016-01-20T13:49:02Z</time>
      </trkpt>
      <trkpt lat="44.84377" lon="-0.51784">
        <ele>-1</ele>
        <time>2016-01-20T13:49:09Z</time>
      </trkpt>
      <trkpt lat="44.84368" lon="-0.51782">
        <ele>-7</ele>
        <time>2016-01-20T13:49:18Z</time>
      </trkpt>
      <trkpt lat="44.8436" lon="-0.51785">
        <ele>-11</ele>
        <time>2016-01-20T13:49:27Z</time>
      </trkpt>
      <trkpt lat="44.84352" lon="-0.51784">
        <ele>-10</ele>
        <time>2016-01-20T13:49:35Z</time>
      </trkpt>
      <trkpt lat="44.84343" lon="-0.51782">
        <ele>-7</ele>
        <time>2016-01-20T13:49:42Z</time>
      </trkpt>
      <trkpt lat="44.84335" lon="-0.5178">
        <ele>-6</ele>
        <time>2016-01-20T13:49:47Z</time>
      </trkpt>
      <trkpt lat="44.84328" lon="-0.51781">
        <ele>-4</ele>
        <time>2016-01-20T13:49:52Z</time>
      </trkpt>
      <trkpt lat="44.84321" lon="-0.51782">
        <ele>-4</ele>
        <time>2016-01-20T13:49:56Z</time>
      </trkpt>
      <trkpt lat="44.84312" lon="-0.51783">
        <ele>-4</ele>
        <time>2016-01-20T13:50:01Z</time>
      </trkpt>
      <trkpt lat="44.84305" lon="-0.51786">
        <ele>-4</ele>
        <time>2016-01-20T13:50:06Z</time>
      </trkpt>
      <trkpt lat="44.84298" lon="-0.51789">
        <ele>-3</ele>
        <time>2016-01-20T13:50:11Z</time>
      </trkpt>
      <trkpt lat="44.8429" lon="-0.51793">
        <ele>-4</ele>
        <time>2016-01-20T13:50:22Z</time>
      </trkpt>
      <trkpt lat="44.84281" lon="-0.51794">
        <ele>-1</ele>
        <time>2016-01-20T13:50:35Z</time>
      </trkpt>
      <trkpt lat="44.84274" lon="-0.51795">
        <ele>-2</ele>
        <time>2016-01-20T13:50:41Z</time>
      </trkpt>
      <trkpt lat="44.84267" lon="-0.51801">
        <ele>-1</ele>
        <time>2016-01-20T13:50:46Z</time>
      </trkpt>
      <trkpt lat="44.84261" lon="-0.51808">
        <ele>62.5</ele>
        <time>2016-01-20T13:50:51Z</time>
      </trkpt>
      <trkpt lat="44.84255" lon="-0.51815">
        <ele>3</ele>
        <time>2016-01-20T13:50:56Z</time>
      </trkpt>
      <trkpt lat="44.84248" lon="-0.51824">
        <ele>6</ele>
        <time>2016-01-20T13:51:02Z</time>
      </trkpt>
      <trkpt lat="44.84244" lon="-0.51834">
        <ele>8</ele>
        <time>2016-01-20T13:51:09Z</time>
      </trkpt>
      <trkpt lat="44.84238" lon="-0.51843">
        <ele>11</ele>
        <time>2016-01-20T13:51:15Z</time>
      </trkpt>
      <trkpt lat="44.84234" lon="-0.51854">
        <ele>10</ele>
        <time>2016-01-20T13:51:23Z</time>
      </trkpt>
      <trkpt lat="44.84228" lon="-0.5186">
        <ele>14</ele>
        <time>2016-01-20T13:51:27Z</time>
      </trkpt>
      <trkpt lat="44.84221" lon="-0.51866">
        <ele>16</ele>
        <time>2016-01-20T13:51:32Z</time>
      </trkpt>
      <trkpt lat="44.84218" lon="-0.51877">
        <ele>17</ele>
        <time>2016-01-20T13:51:38Z</time>
      </trkpt>
      <trkpt lat="44.84215" lon="-0.51888">
        <ele>16</ele>
        <time>2016-01-20T13:51:44Z</time>
      </trkpt>
      <trkpt lat="44.84211" lon="-0.51897">
        <ele>16</ele>
        <time>2016-01-20T13:51:50Z</time>
      </trkpt>
      <trkpt lat="44.84204" lon="-0.51905">
        <ele>17</ele>
        <time>2016-01-20T13:51:57Z</time>
      </trkpt>
      <trkpt lat="44.84202" lon="-0.51916">
        <ele>14</ele>
        <time>2016-01-20T13:52:05Z</time>
      </trkpt>
      <trkpt lat="44.84204" lon="-0.51927">
        <ele>6</ele>
        <time>2016-01-20T13:52:13Z</time>
      </trkpt>
      <trkpt lat="44.84206" lon="-0.51939">
        <ele>2</ele>
        <time>2016-01-20T13:52:20Z</time>
      </trkpt>
      <trkpt lat="44.84203" lon="-0.51949">
        <ele>8</ele>
        <time>2016-01-20T13:52:25Z</time>
      </trkpt>
      <trkpt lat="44.84203" lon="-0.5196">
        <ele>9</ele>
        <time>2016-01-20T13:52:30Z</time>
      </trkpt>
      <trkpt lat="44.84205" lon="-0.51972">
        <ele>9</ele>
        <time>2016-01-20T13:52:36Z</time>
      </trkpt>
      <trkpt lat="44.84206" lon="-0.51983">
        <ele>11</ele>
        <time>2016-01-20T13:52:42Z</time>
      </trkpt>
      <trkpt lat="44.8421" lon="-0.51993">
        <ele>10</ele>
        <time>2016-01-20T13:52:48Z</time>
      </trkpt>
      <trkpt lat="44.84213" lon="-0.52004">
        <ele>7</ele>
        <time>2016-01-20T13:52:56Z</time>
      </trkpt>
      <trkpt lat="44.84212" lon="-0.52016">
        <ele>8</ele>
        <time>2016-01-20T13:53:03Z</time>
      </trkpt>
      <trkpt lat="44.84217" lon="-0.52027">
        <ele>6</ele>
        <time>2016-01-20T13:53:09Z</time>
      </trkpt>
      <trkpt lat="44.8422" lon="-0.52038">
        <ele>6</ele>
        <time>2016-01-20T13:53:15Z</time>
      </trkpt>
      <trkpt lat="44.84221" lon="-0.52051">
        <ele>3</ele>
        <time>2016-01-20T13:53:22Z</time>
      </trkpt>
      <trkpt lat="44.84223" lon="-0.52063">
        <ele>3</ele>
        <time>2016-01-20T13:53:27Z</time>
      </trkpt>
      <trkpt lat="44.84224" lon="-0.52074">
        <ele>2</ele>
        <time>2016-01-20T13:53:33Z</time>
      </trkpt>
      <trkpt lat="44.84226" lon="-0.52085">
        <ele>64.9</ele>
        <time>2016-01-20T13:53:40Z</time>
      </trkpt>
      <trkpt lat="44.84228" lon="-0.52097">
        <ele>-1</ele>
        <time>2016-01-20T13:53:46Z</time>
      </trkpt>
      <trkpt lat="44.84231" lon="-0.52108">
        <ele>-3</ele>
        <time>2016-01-20T13:53:53Z</time>
      </trkpt>
      <trkpt lat="44.84231" lon="-0.5212">
        <ele>-1</ele>
        <time>2016-01-20T13:53:59Z</time>
      </trkpt>
      <trkpt lat="44.8423" lon="-0.52131">
        <ele>5</ele>
        <time>2016-01-20T13:54:04Z</time>
      </trkpt>
      <trkpt lat="44.84229" lon="-0.52143">
        <ele>9</ele>
        <time>2016-01-20T13:54:11Z</time>
      </trkpt>
      <trkpt lat="44.84231" lon="-0.52156">
        <ele>10</ele>
        <time>2016-01-20T13:54:18Z</time>
      </trkpt>
      <trkpt lat="44.84232" lon="-0.52168">
        <ele>11</ele>
        <time>2016-01-20T13:54:24Z</time>
      </trkpt>
      <trkpt lat="44.84231" lon="-0.5218">
        <ele>11</ele>
        <time>2016-01-20T13:54:31Z</time>
      </trkpt>
      <trkpt lat="44.84231" lon="-0.52192">
        <ele>10</ele>
        <time>2016-01-20T13:54:37Z</time>
      </trkpt>
      <trkpt lat="44.84233" lon="-0.52204">
        <ele>7</ele>
        <time>2016-01-20T13:54:46Z</time>
      </trkpt>
      <trkpt lat="44.84231" lon="-0.52216">
        <ele>5</ele>
        <time>2016-01-20T13:54:52Z</time>
      </trkpt>
      <trkpt lat="44.84228" lon="-0.52226">
        <ele>4</ele>
        <time>2016-01-20T13:54:57Z</time>
      </trkpt>
      <trkpt lat="44.8423" lon="-0.52237">
        <ele>63.2</ele>
        <time>2016-01-20T13:55:04Z</time>
      </trkpt>
      <trkpt lat="44.84231" lon="-0.52248">
        <ele>62.5</ele>
        <time>2016-01-20T13:55:09Z</time>
      </trkpt>
      <trkpt lat="44.84227" lon="-0.52259">
        <ele>62.4</ele>
        <time>2016-01-20T13:55:14Z</time>
      </trkpt>
      <trkpt lat="44.84221" lon="-0.52266">
        <ele>1</ele>
        <time>2016-01-20T13:55:21Z</time>
      </trkpt>
      <trkpt lat="44.84213" lon="-0.52272">
        <ele>-1</ele>
        <time>2016-01-20T13:55:33Z</time>
      </trkpt>
      <trkpt lat="44.84205" lon="-0.52274">
        <ele>-2</ele>
        <time>2016-01-20T13:55:40Z</time>
      </trkpt>
      <trkpt lat="44.84196" lon="-0.52273">
        <ele>62.3</ele>
        <time>2016-01-20T13:55:45Z</time>
      </trkpt>
      <trkpt lat="44.84189" lon="-0.52267">
        <ele>-5</ele>
        <time>2016-01-20T13:55:53Z</time>
      </trkpt>
      <trkpt lat="44.84181" lon="-0.52267">
        <ele>-3</ele>
        <time>2016-01-20T13:55:58Z</time>
      </trkpt>
      <trkpt lat="44.84173" lon="-0.52262">
        <ele>-2</ele>
        <time>2016-01-20T13:56:07Z</time>
      </trkpt>
      <trkpt lat="44.84165" lon="-0.52257">
        <ele>-1</ele>
        <time>2016-01-20T13:56:15Z</time>
      </trkpt>
      <trkpt lat="44.84158" lon="-0.52253">
        <ele>1</ele>
        <time>2016-01-20T13:56:21Z</time>
      </trkpt>
      <trkpt lat="44.8415" lon="-0.5225">
        <ele>61</ele>
        <time>2016-01-20T13:56:26Z</time>
      </trkpt>
      <trkpt lat="44.84142" lon="-0.52246">
        <ele>61</ele>
        <time>2016-01-20T13:56:31Z</time>
      </trkpt>
      <trkpt lat="44.84134" lon="-0.52244">
        <ele>2</ele>
        <time>2016-01-20T13:56:36Z</time>
      </trkpt>
      <trkpt lat="44.84126" lon="-0.52244">
        <ele>3</ele>
        <time>2016-01-20T13:56:41Z</time>
      </trkpt>
      <trkpt lat="44.84118" lon="-0.52245">
        <ele>3</ele>
        <time>2016-01-20T13:56:47Z</time>
      </trkpt>
      <trkpt lat="44.8411" lon="-0.52246">
        <ele>4</ele>
        <time>2016-01-20T13:56:53Z</time>
      </trkpt>
      <trkpt lat="44.84103" lon="-0.5225">
        <ele>5</ele>
        <time>2016-01-20T13:56:58Z</time>
      </trkpt>
      <trkpt lat="44.84095" lon="-0.52251">
        <ele>7</ele>
        <time>2016-01-20T13:57:02Z</time>
      </trkpt>
      <trkpt lat="44.84089" lon="-0.52257">
        <ele>9</ele>
        <time>2016-01-20T13:57:08Z</time>
      </trkpt>
      <trkpt lat="44.84081" lon="-0.52263">
        <ele>11</ele>
        <time>2016-01-20T13:57:13Z</time>
      </trkpt>
      <trkpt lat="44.84078" lon="-0.52274">
        <ele>10</ele>
        <time>2016-01-20T13:57:20Z</time>
      </trkpt>
      <trkpt lat="44.84081" lon="-0.5228">
        <ele>8</ele>
        <time>2016-01-20T13:57:53Z</time>
      </trkpt>
      <trkpt lat="44.84081" lon="-0.5228">
        <ele>8</ele>
        <time>2016-01-20T13:57:53Z</time>
      </trkpt>
    </trkseg>
  </trk>
</gpx>